<?xml version="1.0" encoding="UTF-8" standalone="no" ?>
<gpx xmlns="http://www.topografix.com/GPX/1/1" xmlns:xsi="http://www.w3.org/2001/XMLSchema-instance" xsi:schemaLocation="http://www.topografix.com/GPX/1/1 http://www.topografix.com/GPX/1/1/gpx.xsd" version="1.1" creator="VisuGPX - https://www.visugpx.com">
  <metadata>
    <name>Mas d'Escattes - Sinsans - Valcaude</name>
  </metadata>
  <trk>
    <name><![CDATA[Mas d'Escattes - Sinsans - Valcaude]]></name>
    <extensions>
      <line xmlns="http://www.topografix.com/GPX/gpx_style/0/2">
        <color>910236</color>
        <width>4</width>
          <extensions>
            <sens>1</sens>
          </extensions>
      </line>
    </extensions>
    <trkseg>
      <trkpt lat="43.7734" lon="4.15986">
        <ele>65.864414</ele>
        <time>2023-04-27T11:34:44.129Z</time>
      </trkpt>
      <trkpt lat="43.7734" lon="4.15984">
        <ele>65.864414</ele>
        <time>2023-04-27T11:34:44.655Z</time>
      </trkpt>
      <trkpt lat="43.77337" lon="4.15953">
        <ele>65.864414</ele>
        <time>2023-04-27T11:34:54.216Z</time>
      </trkpt>
      <trkpt lat="43.77327" lon="4.15925">
        <ele>65.864414</ele>
        <time>2023-04-27T11:35:03.906Z</time>
      </trkpt>
      <trkpt lat="43.77341" lon="4.15925">
        <ele>65.864414</ele>
        <time>2023-04-27T11:35:09.993Z</time>
      </trkpt>
      <trkpt lat="43.77346" lon="4.15917">
        <ele>65.864414</ele>
        <time>2023-04-27T11:35:13.251Z</time>
      </trkpt>
      <trkpt lat="43.77353" lon="4.15919">
        <ele>65.864414</ele>
        <time>2023-04-27T11:35:16.062Z</time>
      </trkpt>
      <trkpt lat="43.77359" lon="4.15917">
        <ele>65.864414</ele>
        <time>2023-04-27T11:35:18.764Z</time>
      </trkpt>
      <trkpt lat="43.77364" lon="4.15912">
        <ele>65.864414</ele>
        <time>2023-04-27T11:35:21.402Z</time>
      </trkpt>
      <trkpt lat="43.77367" lon="4.15909">
        <ele>65.881964</ele>
        <time>2023-04-27T11:35:23.120Z</time>
      </trkpt>
      <trkpt lat="43.77377" lon="4.15908">
        <ele>66.045321</ele>
        <time>2023-04-27T11:35:27.425Z</time>
      </trkpt>
      <trkpt lat="43.77385" lon="4.15911">
        <ele>66.184258</ele>
        <time>2023-04-27T11:35:31.082Z</time>
      </trkpt>
      <trkpt lat="43.77388" lon="4.15915">
        <ele>66.253956</ele>
        <time>2023-04-27T11:35:32.946Z</time>
      </trkpt>
      <trkpt lat="43.77399" lon="4.15916">
        <ele>66.420022</ele>
        <time>2023-04-27T11:35:37.346Z</time>
      </trkpt>
      <trkpt lat="43.77403" lon="4.15913">
        <ele>66.502988</ele>
        <time>2023-04-27T11:35:39.587Z</time>
      </trkpt>
      <trkpt lat="43.77411" lon="4.15904">
        <ele>66.669099</ele>
        <time>2023-04-27T11:35:44.030Z</time>
      </trkpt>
      <trkpt lat="43.7742" lon="4.159">
        <ele>66.819208</ele>
        <time>2023-04-27T11:35:48.039Z</time>
      </trkpt>
      <trkpt lat="43.77497" lon="4.15878">
        <ele>68.10941</ele>
        <time>2023-04-27T11:36:22.466Z</time>
      </trkpt>
      <trkpt lat="43.77548" lon="4.15866">
        <ele>68.98069</ele>
        <time>2023-04-27T11:36:45.193Z</time>
      </trkpt>
      <trkpt lat="43.77576" lon="4.15855">
        <ele>69.528341</ele>
        <time>2023-04-27T11:36:57.989Z</time>
      </trkpt>
      <trkpt lat="43.77593" lon="4.15912">
        <ele>70.372829</ele>
        <time>2023-04-27T11:37:17.627Z</time>
      </trkpt>
      <trkpt lat="43.77602" lon="4.15932">
        <ele>70.694413</ele>
        <time>2023-04-27T11:37:25.085Z</time>
      </trkpt>
      <trkpt lat="43.77606" lon="4.15936">
        <ele>70.780119</ele>
        <time>2023-04-27T11:37:27.042Z</time>
      </trkpt>
      <trkpt lat="43.77618" lon="4.15952">
        <ele>71.101157</ele>
        <time>2023-04-27T11:37:34.510Z</time>
      </trkpt>
      <trkpt lat="43.77712" lon="4.16042">
        <ele>73.862151</ele>
        <time>2023-04-27T11:38:25.015Z</time>
      </trkpt>
      <trkpt lat="43.77719" lon="4.16021">
        <ele>74.350511</ele>
        <time>2023-04-27T11:38:32.427Z</time>
      </trkpt>
      <trkpt lat="43.77742" lon="4.16019">
        <ele>75.050278</ele>
        <time>2023-04-27T11:38:43.215Z</time>
      </trkpt>
      <trkpt lat="43.7776" lon="4.16015">
        <ele>75.590204</ele>
        <time>2023-04-27T11:38:51.600Z</time>
      </trkpt>
      <trkpt lat="43.77767" lon="4.16013">
        <ele>75.804396</ele>
        <time>2023-04-27T11:38:54.916Z</time>
      </trkpt>
      <trkpt lat="43.77807" lon="4.16007">
        <ele>77.020062</ele>
        <time>2023-04-27T11:39:14.078Z</time>
      </trkpt>
      <trkpt lat="43.77839" lon="4.16002">
        <ele>78.223793</ele>
        <time>2023-04-27T11:39:29.431Z</time>
      </trkpt>
      <trkpt lat="43.77845" lon="4.15998">
        <ele>78.550212</ele>
        <time>2023-04-27T11:39:32.605Z</time>
      </trkpt>
      <trkpt lat="43.77892" lon="4.15986">
        <ele>80.966241</ele>
        <time>2023-04-27T11:39:56.352Z</time>
      </trkpt>
      <trkpt lat="43.7793" lon="4.15973">
        <ele>82.942753</ele>
        <time>2023-04-27T11:40:16.303Z</time>
      </trkpt>
      <trkpt lat="43.77938" lon="4.15973">
        <ele>83.330057</ele>
        <time>2023-04-27T11:40:20.202Z</time>
      </trkpt>
      <trkpt lat="43.77945" lon="4.15975">
        <ele>83.710682</ele>
        <time>2023-04-27T11:40:24.171Z</time>
      </trkpt>
      <trkpt lat="43.77989" lon="4.1599">
        <ele>85.97085</ele>
        <time>2023-04-27T11:40:47.444Z</time>
      </trkpt>
      <trkpt lat="43.7801" lon="4.1599">
        <ele>87.13918</ele>
        <time>2023-04-27T11:40:58.568Z</time>
      </trkpt>
      <trkpt lat="43.7801" lon="4.1599">
        <ele>87.13918</ele>
        <time>2023-04-27T11:40:58.585Z</time>
      </trkpt>
      <trkpt lat="43.78003" lon="4.15987">
        <ele>87.59876</ele>
        <time>2023-04-27T11:41:01.587Z</time>
      </trkpt>
      <trkpt lat="43.78007" lon="4.15987">
        <ele>87.850591</ele>
        <time>2023-04-27T11:41:03.231Z</time>
      </trkpt>
      <trkpt lat="43.78011" lon="4.15986">
        <ele>88.106493</ele>
        <time>2023-04-27T11:41:04.901Z</time>
      </trkpt>
      <trkpt lat="43.78021" lon="4.15981">
        <ele>88.77584</ele>
        <time>2023-04-27T11:41:09.273Z</time>
      </trkpt>
      <trkpt lat="43.78025" lon="4.1598">
        <ele>89.031741</ele>
        <time>2023-04-27T11:41:10.945Z</time>
      </trkpt>
      <trkpt lat="43.78027" lon="4.1598">
        <ele>89.157657</ele>
        <time>2023-04-27T11:41:11.767Z</time>
      </trkpt>
      <trkpt lat="43.78032" lon="4.15982">
        <ele>89.485311</ele>
        <time>2023-04-27T11:41:13.908Z</time>
      </trkpt>
      <trkpt lat="43.78034" lon="4.15982">
        <ele>89.611227</ele>
        <time>2023-04-27T11:41:14.731Z</time>
      </trkpt>
      <trkpt lat="43.78037" lon="4.15981">
        <ele>89.805494</ele>
        <time>2023-04-27T11:41:16.000Z</time>
      </trkpt>
      <trkpt lat="43.78048" lon="4.15975">
        <ele>90.549799</ele>
        <time>2023-04-27T11:41:20.860Z</time>
      </trkpt>
      <trkpt lat="43.78056" lon="4.15974">
        <ele>91.05551</ele>
        <time>2023-04-27T11:41:24.162Z</time>
      </trkpt>
      <trkpt lat="43.78065" lon="4.15977">
        <ele>91.63831</ele>
        <time>2023-04-27T11:41:27.968Z</time>
      </trkpt>
      <trkpt lat="43.78067" lon="4.15977">
        <ele>91.764225</ele>
        <time>2023-04-27T11:41:28.791Z</time>
      </trkpt>
      <trkpt lat="43.78079" lon="4.15971">
        <ele>92.567441</ele>
        <time>2023-04-27T11:41:34.036Z</time>
      </trkpt>
      <trkpt lat="43.78083" lon="4.15971">
        <ele>92.819273</ele>
        <time>2023-04-27T11:41:35.680Z</time>
      </trkpt>
      <trkpt lat="43.78085" lon="4.15968">
        <ele>93.004881</ele>
        <time>2023-04-27T11:41:36.893Z</time>
      </trkpt>
      <trkpt lat="43.78091" lon="4.15958">
        <ele>93.595905</ele>
        <time>2023-04-27T11:41:40.752Z</time>
      </trkpt>
      <trkpt lat="43.78092" lon="4.15954">
        <ele>93.788317</ele>
        <time>2023-04-27T11:41:42.009Z</time>
      </trkpt>
      <trkpt lat="43.78097" lon="4.15945">
        <ele>94.304506</ele>
        <time>2023-04-27T11:41:45.382Z</time>
      </trkpt>
      <trkpt lat="43.78098" lon="4.15943">
        <ele>94.415088</ele>
        <time>2023-04-27T11:41:46.104Z</time>
      </trkpt>
      <trkpt lat="43.78102" lon="4.15926">
        <ele>95.227823</ele>
        <time>2023-04-27T11:41:51.411Z</time>
      </trkpt>
      <trkpt lat="43.78106" lon="4.15918">
        <ele>95.67015</ele>
        <time>2023-04-27T11:41:54.300Z</time>
      </trkpt>
      <trkpt lat="43.78107" lon="4.15911">
        <ele>95.994503</ele>
        <time>2023-04-27T11:41:56.417Z</time>
      </trkpt>
      <trkpt lat="43.78109" lon="4.15899">
        <ele>96.554307</ele>
        <time>2023-04-27T11:42:00.076Z</time>
      </trkpt>
      <trkpt lat="43.78111" lon="4.15894">
        <ele>96.814131</ele>
        <time>2023-04-27T11:42:01.773Z</time>
      </trkpt>
      <trkpt lat="43.78111" lon="4.15888">
        <ele>97.086933</ele>
        <time>2023-04-27T11:42:03.563Z</time>
      </trkpt>
      <trkpt lat="43.78115" lon="4.15883">
        <ele>97.429219</ele>
        <time>2023-04-27T11:42:06.629Z</time>
      </trkpt>
      <trkpt lat="43.78124" lon="4.1586">
        <ele>98.905325</ele>
        <time>2023-04-27T11:42:17.047Z</time>
      </trkpt>
      <trkpt lat="43.78131" lon="4.15853">
        <ele>99.717436</ele>
        <time>2023-04-27T11:42:22.226Z</time>
      </trkpt>
      <trkpt lat="43.78143" lon="4.15887">
        <ele>102.225941</ele>
        <time>2023-04-27T11:42:40.840Z</time>
      </trkpt>
      <trkpt lat="43.78148" lon="4.15907">
        <ele>103.661977</ele>
        <time>2023-04-27T11:42:52.106Z</time>
      </trkpt>
      <trkpt lat="43.78176" lon="4.15929">
        <ele>106.647761</ele>
        <time>2023-04-27T11:43:16.281Z</time>
      </trkpt>
      <trkpt lat="43.78184" lon="4.15923">
        <ele>107.506735</ele>
        <time>2023-04-27T11:43:23.605Z</time>
      </trkpt>
      <trkpt lat="43.78188" lon="4.15908">
        <ele>108.565978</ele>
        <time>2023-04-27T11:43:32.403Z</time>
      </trkpt>
      <trkpt lat="43.78199" lon="4.15915">
        <ele>109.742312</ele>
        <time>2023-04-27T11:43:42.830Z</time>
      </trkpt>
      <trkpt lat="43.78244" lon="4.15928">
        <ele>113.959097</ele>
        <time>2023-04-27T11:44:18.378Z</time>
      </trkpt>
      <trkpt lat="43.7827" lon="4.15915">
        <ele>116.344025</ele>
        <time>2023-04-27T11:44:39.090Z</time>
      </trkpt>
      <trkpt lat="43.78278" lon="4.15905">
        <ele>117.236935</ele>
        <time>2023-04-27T11:44:47.921Z</time>
      </trkpt>
      <trkpt lat="43.78291" lon="4.15901">
        <ele>118.425551</ele>
        <time>2023-04-27T11:44:58.556Z</time>
      </trkpt>
      <trkpt lat="43.783" lon="4.15909">
        <ele>119.309073</ele>
        <time>2023-04-27T11:45:06.464Z</time>
      </trkpt>
      <trkpt lat="43.78305" lon="4.15909">
        <ele>119.758198</ele>
        <time>2023-04-27T11:45:10.860Z</time>
      </trkpt>
      <trkpt lat="43.78309" lon="4.15909">
        <ele>120.113791</ele>
        <time>2023-04-27T11:45:14.333Z</time>
      </trkpt>
      <trkpt lat="43.7833" lon="4.15922">
        <ele>122.011338</ele>
        <time>2023-04-27T11:45:30.824Z</time>
      </trkpt>
      <trkpt lat="43.78342" lon="4.15917">
        <ele>123.065354</ele>
        <time>2023-04-27T11:45:40.424Z</time>
      </trkpt>
      <trkpt lat="43.78342" lon="4.15892">
        <ele>124.6171</ele>
        <time>2023-04-27T11:45:53.501Z</time>
      </trkpt>
      <trkpt lat="43.78347" lon="4.15878">
        <ele>125.568041</ele>
        <time>2023-04-27T11:46:01.280Z</time>
      </trkpt>
      <trkpt lat="43.78366" lon="4.15872">
        <ele>127.228277</ele>
        <time>2023-04-27T11:46:14.562Z</time>
      </trkpt>
      <trkpt lat="43.784" lon="4.15872">
        <ele>129.924648</ele>
        <time>2023-04-27T11:46:35.422Z</time>
      </trkpt>
      <trkpt lat="43.78408" lon="4.15868">
        <ele>130.102148</ele>
        <time>2023-04-27T11:46:40.447Z</time>
      </trkpt>
      <trkpt lat="43.78417" lon="4.15864">
        <ele>130.297084</ele>
        <time>2023-04-27T11:46:46.001Z</time>
      </trkpt>
      <trkpt lat="43.7843" lon="4.15848">
        <ele>130.658097</ele>
        <time>2023-04-27T11:46:56.202Z</time>
      </trkpt>
      <trkpt lat="43.78439" lon="4.1584">
        <ele>130.873385</ele>
        <time>2023-04-27T11:47:01.887Z</time>
      </trkpt>
      <trkpt lat="43.78453" lon="4.15808">
        <ele>131.422319</ele>
        <time>2023-04-27T11:47:16.290Z</time>
      </trkpt>
      <trkpt lat="43.78476" lon="4.15782">
        <ele>132.028226</ele>
        <time>2023-04-27T11:47:31.542Z</time>
      </trkpt>
      <trkpt lat="43.78493" lon="4.15789">
        <ele>132.379055</ele>
        <time>2023-04-27T11:47:40.208Z</time>
      </trkpt>
      <trkpt lat="43.78507" lon="4.15789">
        <ele>132.663327</ele>
        <time>2023-04-27T11:47:47.037Z</time>
      </trkpt>
      <trkpt lat="43.78516" lon="4.15784">
        <ele>132.861334</ele>
        <time>2023-04-27T11:47:51.732Z</time>
      </trkpt>
      <trkpt lat="43.78551" lon="4.15779">
        <ele>133.529048</ele>
        <time>2023-04-27T11:48:08.596Z</time>
      </trkpt>
      <trkpt lat="43.78573" lon="4.15739">
        <ele>133.432602</ele>
        <time>2023-04-27T11:48:25.700Z</time>
      </trkpt>
      <trkpt lat="43.78573" lon="4.15734">
        <ele>133.421593</ele>
        <time>2023-04-27T11:48:27.653Z</time>
      </trkpt>
      <trkpt lat="43.78572" lon="4.15686">
        <ele>133.329263</ele>
        <time>2023-04-27T11:48:44.113Z</time>
      </trkpt>
      <trkpt lat="43.78529" lon="4.15677">
        <ele>133.21442</ele>
        <time>2023-04-27T11:49:04.702Z</time>
      </trkpt>
      <trkpt lat="43.78511" lon="4.1567">
        <ele>133.162501</ele>
        <time>2023-04-27T11:49:14.068Z</time>
      </trkpt>
      <trkpt lat="43.7852" lon="4.15655">
        <ele>133.123868</ele>
        <time>2023-04-27T11:49:21.118Z</time>
      </trkpt>
      <trkpt lat="43.78535" lon="4.15642">
        <ele>133.076648</ele>
        <time>2023-04-27T11:49:29.623Z</time>
      </trkpt>
      <trkpt lat="43.78544" lon="4.15637">
        <ele>133.058836</ele>
        <time>2023-04-27T11:49:34.142Z</time>
      </trkpt>
      <trkpt lat="43.78554" lon="4.15637">
        <ele>133.098912</ele>
        <time>2023-04-27T11:49:38.983Z</time>
      </trkpt>
      <trkpt lat="43.7862" lon="4.15577">
        <ele>133.415577</ele>
        <time>2023-04-27T11:50:17.673Z</time>
      </trkpt>
      <trkpt lat="43.78629" lon="4.15573">
        <ele>133.453361</ele>
        <time>2023-04-27T11:50:22.397Z</time>
      </trkpt>
      <trkpt lat="43.78639" lon="4.15554">
        <ele>133.521147</ele>
        <time>2023-04-27T11:50:30.999Z</time>
      </trkpt>
      <trkpt lat="43.78676" lon="4.15527">
        <ele>133.690129</ele>
        <time>2023-04-27T11:50:52.249Z</time>
      </trkpt>
      <trkpt lat="43.7869" lon="4.15528">
        <ele>133.745028</ele>
        <time>2023-04-27T11:50:59.023Z</time>
      </trkpt>
      <trkpt lat="43.78731" lon="4.15529">
        <ele>133.089897</ele>
        <time>2023-04-27T11:51:18.875Z</time>
      </trkpt>
      <trkpt lat="43.78755" lon="4.15533">
        <ele>132.598266</ele>
        <time>2023-04-27T11:51:30.270Z</time>
      </trkpt>
      <trkpt lat="43.78765" lon="4.15538">
        <ele>132.394208</ele>
        <time>2023-04-27T11:51:34.914Z</time>
      </trkpt>
      <trkpt lat="43.78773" lon="4.15538">
        <ele>132.232082</ele>
        <time>2023-04-27T11:51:38.618Z</time>
      </trkpt>
      <trkpt lat="43.78789" lon="4.15528">
        <ele>131.863465</ele>
        <time>2023-04-27T11:51:46.936Z</time>
      </trkpt>
      <trkpt lat="43.78801" lon="4.15512">
        <ele>131.5251</ele>
        <time>2023-04-27T11:51:54.534Z</time>
      </trkpt>
      <trkpt lat="43.78812" lon="4.15481">
        <ele>131.026788</ele>
        <time>2023-04-27T11:52:05.631Z</time>
      </trkpt>
      <trkpt lat="43.78829" lon="4.15421">
        <ele>130.044865</ele>
        <time>2023-04-27T11:52:26.494Z</time>
      </trkpt>
      <trkpt lat="43.78841" lon="4.15343">
        <ele>128.113812</ele>
        <time>2023-04-27T11:52:51.353Z</time>
      </trkpt>
      <trkpt lat="43.78844" lon="4.15298">
        <ele>127.00203</ele>
        <time>2023-04-27T11:53:05.509Z</time>
      </trkpt>
      <trkpt lat="43.78849" lon="4.15287">
        <ele>126.692259</ele>
        <time>2023-04-27T11:53:09.555Z</time>
      </trkpt>
      <trkpt lat="43.7885" lon="4.15281">
        <ele>126.531597</ele>
        <time>2023-04-27T11:53:11.629Z</time>
      </trkpt>
      <trkpt lat="43.78845" lon="4.15273">
        <ele>126.283805</ele>
        <time>2023-04-27T11:53:14.856Z</time>
      </trkpt>
      <trkpt lat="43.78846" lon="4.15256">
        <ele>125.87532</ele>
        <time>2023-04-27T11:53:20.194Z</time>
      </trkpt>
      <trkpt lat="43.78853" lon="4.15238">
        <ele>125.384569</ele>
        <time>2023-04-27T11:53:26.739Z</time>
      </trkpt>
      <trkpt lat="43.78863" lon="4.15225">
        <ele>124.919967</ele>
        <time>2023-04-27T11:53:32.928Z</time>
      </trkpt>
      <trkpt lat="43.78866" lon="4.15198">
        <ele>124.25228</ele>
        <time>2023-04-27T11:53:42.014Z</time>
      </trkpt>
      <trkpt lat="43.78874" lon="4.15176">
        <ele>124.088037</ele>
        <time>2023-04-27T11:53:50.418Z</time>
      </trkpt>
      <trkpt lat="43.78888" lon="4.15161">
        <ele>124.158897</ele>
        <time>2023-04-27T11:53:58.567Z</time>
      </trkpt>
      <trkpt lat="43.78892" lon="4.15162">
        <ele>124.176971</ele>
        <time>2023-04-27T11:54:00.649Z</time>
      </trkpt>
      <trkpt lat="43.78904" lon="4.15152">
        <ele>124.236043</ele>
        <time>2023-04-27T11:54:07.440Z</time>
      </trkpt>
      <trkpt lat="43.78911" lon="4.15164">
        <ele>124.281738</ele>
        <time>2023-04-27T11:54:12.810Z</time>
      </trkpt>
      <trkpt lat="43.78914" lon="4.15179">
        <ele>124.328114</ele>
        <time>2023-04-27T11:54:18.254Z</time>
      </trkpt>
      <trkpt lat="43.78913" lon="4.15205">
        <ele>124.405909</ele>
        <time>2023-04-27T11:54:27.502Z</time>
      </trkpt>
      <trkpt lat="43.78918" lon="4.1525">
        <ele>124.541163</ele>
        <time>2023-04-27T11:54:43.864Z</time>
      </trkpt>
      <trkpt lat="43.78915" lon="4.15273">
        <ele>124.611174</ele>
        <time>2023-04-27T11:54:52.556Z</time>
      </trkpt>
      <trkpt lat="43.7892" lon="4.15288">
        <ele>124.659866</ele>
        <time>2023-04-27T11:54:58.619Z</time>
      </trkpt>
      <trkpt lat="43.78927" lon="4.15307">
        <ele>124.725143</ele>
        <time>2023-04-27T11:55:06.938Z</time>
      </trkpt>
      <trkpt lat="43.78939" lon="4.1532">
        <ele>124.803769</ele>
        <time>2023-04-27T11:55:14.789Z</time>
      </trkpt>
      <trkpt lat="43.78967" lon="4.1534">
        <ele>125.318703</ele>
        <time>2023-04-27T11:55:31.438Z</time>
      </trkpt>
      <trkpt lat="43.78981" lon="4.15351">
        <ele>125.593448</ele>
        <time>2023-04-27T11:55:40.420Z</time>
      </trkpt>
      <trkpt lat="43.78982" lon="4.15351">
        <ele>125.602983</ele>
        <time>2023-04-27T11:55:40.736Z</time>
      </trkpt>
      <trkpt lat="43.7902" lon="4.15366">
        <ele>126.254845</ele>
        <time>2023-04-27T11:56:01.436Z</time>
      </trkpt>
      <trkpt lat="43.79037" lon="4.15379">
        <ele>126.574389</ele>
        <time>2023-04-27T11:56:11.443Z</time>
      </trkpt>
      <trkpt lat="43.79046" lon="4.15397">
        <ele>126.832466</ele>
        <time>2023-04-27T11:56:19.501Z</time>
      </trkpt>
      <trkpt lat="43.79052" lon="4.15403">
        <ele>126.951297</ele>
        <time>2023-04-27T11:56:23.132Z</time>
      </trkpt>
      <trkpt lat="43.79072" lon="4.15414">
        <ele>127.304245</ele>
        <time>2023-04-27T11:56:34.060Z</time>
      </trkpt>
      <trkpt lat="43.79079" lon="4.15389">
        <ele>127.629818</ele>
        <time>2023-04-27T11:56:43.834Z</time>
      </trkpt>
      <trkpt lat="43.79105" lon="4.15359">
        <ele>127.692188</ele>
        <time>2023-04-27T11:57:00.300Z</time>
      </trkpt>
      <trkpt lat="43.79118" lon="4.15316">
        <ele>127.617619</ele>
        <time>2023-04-27T11:57:16.379Z</time>
      </trkpt>
      <trkpt lat="43.79125" lon="4.15301">
        <ele>127.588636</ele>
        <time>2023-04-27T11:57:22.687Z</time>
      </trkpt>
      <trkpt lat="43.79139" lon="4.15287">
        <ele>127.549481</ele>
        <time>2023-04-27T11:57:31.038Z</time>
      </trkpt>
      <trkpt lat="43.79155" lon="4.15305">
        <ele>127.504575</ele>
        <time>2023-04-27T11:57:40.673Z</time>
      </trkpt>
      <trkpt lat="43.79173" lon="4.15274">
        <ele>127.439444</ele>
        <time>2023-04-27T11:57:54.514Z</time>
      </trkpt>
      <trkpt lat="43.79217" lon="4.1521">
        <ele>127.166459</ele>
        <time>2023-04-27T11:58:24.437Z</time>
      </trkpt>
      <trkpt lat="43.79314" lon="4.15089">
        <ele>126.105475</ele>
        <time>2023-04-27T11:59:26.384Z</time>
      </trkpt>
      <trkpt lat="43.79334" lon="4.15045">
        <ele>125.876067</ele>
        <time>2023-04-27T11:59:44.006Z</time>
      </trkpt>
      <trkpt lat="43.79355" lon="4.15018">
        <ele>125.824105</ele>
        <time>2023-04-27T11:59:57.589Z</time>
      </trkpt>
      <trkpt lat="43.7938" lon="4.14993">
        <ele>125.767911</ele>
        <time>2023-04-27T12:00:12.191Z</time>
      </trkpt>
      <trkpt lat="43.79424" lon="4.14957">
        <ele>125.672639</ele>
        <time>2023-04-27T12:00:36.885Z</time>
      </trkpt>
      <trkpt lat="43.79425" lon="4.14973">
        <ele>125.650578</ele>
        <time>2023-04-27T12:00:42.849Z</time>
      </trkpt>
      <trkpt lat="43.7943" lon="4.14986">
        <ele>125.631737</ele>
        <time>2023-04-27T12:00:47.848Z</time>
      </trkpt>
      <trkpt lat="43.79436" lon="4.14989">
        <ele>125.618891</ele>
        <time>2023-04-27T12:00:51.176Z</time>
      </trkpt>
      <trkpt lat="43.7949" lon="4.14971">
        <ele>125.794459</ele>
        <time>2023-04-27T12:01:18.571Z</time>
      </trkpt>
      <trkpt lat="43.79498" lon="4.14974">
        <ele>125.865003</ele>
        <time>2023-04-27T12:01:22.812Z</time>
      </trkpt>
      <trkpt lat="43.79508" lon="4.14987">
        <ele>125.978408</ele>
        <time>2023-04-27T12:01:29.336Z</time>
      </trkpt>
      <trkpt lat="43.79521" lon="4.15009">
        <ele>126.149591</ele>
        <time>2023-04-27T12:01:39.795Z</time>
      </trkpt>
      <trkpt lat="43.79546" lon="4.15022">
        <ele>126.379619</ele>
        <time>2023-04-27T12:01:53.827Z</time>
      </trkpt>
      <trkpt lat="43.79581" lon="4.15045">
        <ele>126.705463</ele>
        <time>2023-04-27T12:02:13.394Z</time>
      </trkpt>
      <trkpt lat="43.79603" lon="4.15079">
        <ele>126.98408</ele>
        <time>2023-04-27T12:02:29.634Z</time>
      </trkpt>
      <trkpt lat="43.79616" lon="4.15107">
        <ele>127.136676</ele>
        <time>2023-04-27T12:02:41.133Z</time>
      </trkpt>
      <trkpt lat="43.79618" lon="4.15117">
        <ele>127.171657</ele>
        <time>2023-04-27T12:02:45.008Z</time>
      </trkpt>
      <trkpt lat="43.79617" lon="4.15147">
        <ele>127.264623</ele>
        <time>2023-04-27T12:02:55.356Z</time>
      </trkpt>
      <trkpt lat="43.7962" lon="4.15155">
        <ele>127.293396</ele>
        <time>2023-04-27T12:02:58.557Z</time>
      </trkpt>
      <trkpt lat="43.79631" lon="4.15165">
        <ele>127.349923</ele>
        <time>2023-04-27T12:03:04.791Z</time>
      </trkpt>
      <trkpt lat="43.79638" lon="4.15167">
        <ele>127.380725</ele>
        <time>2023-04-27T12:03:08.225Z</time>
      </trkpt>
      <trkpt lat="43.7973" lon="4.15143">
        <ele>127.791112</ele>
        <time>2023-04-27T12:03:52.983Z</time>
      </trkpt>
      <trkpt lat="43.79869" lon="4.1517">
        <ele>131.065916</ele>
        <time>2023-04-27T12:05:08.624Z</time>
      </trkpt>
      <trkpt lat="43.79892" lon="4.15182">
        <ele>131.711831</ele>
        <time>2023-04-27T12:05:22.352Z</time>
      </trkpt>
      <trkpt lat="43.79891" lon="4.15279">
        <ele>132.873322</ele>
        <time>2023-04-27T12:06:00.434Z</time>
      </trkpt>
      <trkpt lat="43.79891" lon="4.153">
        <ele>132.984977</ele>
        <time>2023-04-27T12:06:08.408Z</time>
      </trkpt>
      <trkpt lat="43.79912" lon="4.15299">
        <ele>133.1427</ele>
        <time>2023-04-27T12:06:19.041Z</time>
      </trkpt>
      <trkpt lat="43.79916" lon="4.15293">
        <ele>133.187833</ele>
        <time>2023-04-27T12:06:22.149Z</time>
      </trkpt>
      <trkpt lat="43.79941" lon="4.15274">
        <ele>133.408297</ele>
        <time>2023-04-27T12:06:36.925Z</time>
      </trkpt>
      <trkpt lat="43.7995" lon="4.15249">
        <ele>133.556339</ele>
        <time>2023-04-27T12:06:46.783Z</time>
      </trkpt>
      <trkpt lat="43.79956" lon="4.15222">
        <ele>133.712368</ele>
        <time>2023-04-27T12:06:56.628Z</time>
      </trkpt>
      <trkpt lat="43.79961" lon="4.1521">
        <ele>133.784161</ele>
        <time>2023-04-27T12:07:01.170Z</time>
      </trkpt>
      <trkpt lat="43.79969" lon="4.15206">
        <ele>133.852786</ele>
        <time>2023-04-27T12:07:05.344Z</time>
      </trkpt>
      <trkpt lat="43.80042" lon="4.15172">
        <ele>133.236288</ele>
        <time>2023-04-27T12:07:39.777Z</time>
      </trkpt>
      <trkpt lat="43.80055" lon="4.15157">
        <ele>133.045288</ele>
        <time>2023-04-27T12:07:47.460Z</time>
      </trkpt>
      <trkpt lat="43.80069" lon="4.15143">
        <ele>132.844707</ele>
        <time>2023-04-27T12:07:55.711Z</time>
      </trkpt>
      <trkpt lat="43.80088" lon="4.15131">
        <ele>132.612878</ele>
        <time>2023-04-27T12:08:05.371Z</time>
      </trkpt>
      <trkpt lat="43.801" lon="4.15155">
        <ele>132.375755</ele>
        <time>2023-04-27T12:08:15.450Z</time>
      </trkpt>
      <trkpt lat="43.80116" lon="4.15161">
        <ele>132.187202</ele>
        <time>2023-04-27T12:08:23.521Z</time>
      </trkpt>
      <trkpt lat="43.8013" lon="4.15179">
        <ele>131.964605</ele>
        <time>2023-04-27T12:08:33.205Z</time>
      </trkpt>
      <trkpt lat="43.80145" lon="4.15186">
        <ele>132.130028</ele>
        <time>2023-04-27T12:08:40.541Z</time>
      </trkpt>
      <trkpt lat="43.80153" lon="4.15186">
        <ele>132.3068</ele>
        <time>2023-04-27T12:08:44.784Z</time>
      </trkpt>
      <trkpt lat="43.80153" lon="4.15186">
        <ele>132.308879</ele>
        <time>2023-04-27T12:08:44.839Z</time>
      </trkpt>
      <trkpt lat="43.80181" lon="4.15178">
        <ele>132.89401</ele>
        <time>2023-04-27T12:08:59.040Z</time>
      </trkpt>
      <trkpt lat="43.80192" lon="4.15178">
        <ele>133.124825</ele>
        <time>2023-04-27T12:09:04.768Z</time>
      </trkpt>
      <trkpt lat="43.80201" lon="4.15184">
        <ele>133.324349</ele>
        <time>2023-04-27T12:09:09.728Z</time>
      </trkpt>
      <trkpt lat="43.8018" lon="4.15213">
        <ele>133.931724</ele>
        <time>2023-04-27T12:09:25.299Z</time>
      </trkpt>
      <trkpt lat="43.80176" lon="4.15236">
        <ele>134.295696</ele>
        <time>2023-04-27T12:09:34.803Z</time>
      </trkpt>
      <trkpt lat="43.80168" lon="4.15253">
        <ele>134.59675</ele>
        <time>2023-04-27T12:09:42.662Z</time>
      </trkpt>
      <trkpt lat="43.8015" lon="4.15264">
        <ele>135.010356</ele>
        <time>2023-04-27T12:09:53.451Z</time>
      </trkpt>
      <trkpt lat="43.80138" lon="4.15279">
        <ele>135.33576</ele>
        <time>2023-04-27T12:10:01.925Z</time>
      </trkpt>
      <trkpt lat="43.8013" lon="4.1529">
        <ele>135.57812</ele>
        <time>2023-04-27T12:10:08.061Z</time>
      </trkpt>
      <trkpt lat="43.80105" lon="4.15349">
        <ele>136.915695</ele>
        <time>2023-04-27T12:10:34.822Z</time>
      </trkpt>
      <trkpt lat="43.80095" lon="4.15364">
        <ele>137.317424</ele>
        <time>2023-04-27T12:10:42.785Z</time>
      </trkpt>
      <trkpt lat="43.80087" lon="4.15408">
        <ele>138.219421</ele>
        <time>2023-04-27T12:11:00.734Z</time>
      </trkpt>
      <trkpt lat="43.80062" lon="4.1545">
        <ele>139.301305</ele>
        <time>2023-04-27T12:11:21.658Z</time>
      </trkpt>
      <trkpt lat="43.80052" lon="4.15472">
        <ele>139.822232</ele>
        <time>2023-04-27T12:11:31.675Z</time>
      </trkpt>
      <trkpt lat="43.80052" lon="4.15478">
        <ele>139.938398</ele>
        <time>2023-04-27T12:11:33.945Z</time>
      </trkpt>
      <trkpt lat="43.8008" lon="4.15486">
        <ele>140.671831</ele>
        <time>2023-04-27T12:11:49.316Z</time>
      </trkpt>
      <trkpt lat="43.80096" lon="4.15487">
        <ele>140.91568</ele>
        <time>2023-04-27T12:11:58.097Z</time>
      </trkpt>
      <trkpt lat="43.80104" lon="4.15481">
        <ele>141.047571</ele>
        <time>2023-04-27T12:12:02.775Z</time>
      </trkpt>
      <trkpt lat="43.80116" lon="4.1548">
        <ele>141.229462</ele>
        <time>2023-04-27T12:12:09.158Z</time>
      </trkpt>
      <trkpt lat="43.80128" lon="4.15489">
        <ele>141.435373</ele>
        <time>2023-04-27T12:12:16.506Z</time>
      </trkpt>
      <trkpt lat="43.80118" lon="4.155">
        <ele>141.629385</ele>
        <time>2023-04-27T12:12:22.294Z</time>
      </trkpt>
      <trkpt lat="43.80088" lon="4.15544">
        <ele>142.276279</ele>
        <time>2023-04-27T12:12:41.881Z</time>
      </trkpt>
      <trkpt lat="43.80073" lon="4.15555">
        <ele>142.525571</ele>
        <time>2023-04-27T12:12:49.334Z</time>
      </trkpt>
      <trkpt lat="43.80043" lon="4.15571">
        <ele>142.992111</ele>
        <time>2023-04-27T12:13:02.943Z</time>
      </trkpt>
      <trkpt lat="43.8" lon="4.15593">
        <ele>142.484081</ele>
        <time>2023-04-27T12:13:21.568Z</time>
      </trkpt>
      <trkpt lat="43.79972" lon="4.15618">
        <ele>141.539373</ele>
        <time>2023-04-27T12:13:34.652Z</time>
      </trkpt>
      <trkpt lat="43.79966" lon="4.15623">
        <ele>141.327355</ele>
        <time>2023-04-27T12:13:37.565Z</time>
      </trkpt>
      <trkpt lat="43.79952" lon="4.15626">
        <ele>140.923732</ele>
        <time>2023-04-27T12:13:43.115Z</time>
      </trkpt>
      <trkpt lat="43.79969" lon="4.15643">
        <ele>140.338764</ele>
        <time>2023-04-27T12:13:52.386Z</time>
      </trkpt>
      <trkpt lat="43.79977" lon="4.15645">
        <ele>140.097948</ele>
        <time>2023-04-27T12:13:56.233Z</time>
      </trkpt>
      <trkpt lat="43.79998" lon="4.15639">
        <ele>139.501926</ele>
        <time>2023-04-27T12:14:05.567Z</time>
      </trkpt>
      <trkpt lat="43.8002" lon="4.15648">
        <ele>138.83443</ele>
        <time>2023-04-27T12:14:16.048Z</time>
      </trkpt>
      <trkpt lat="43.80085" lon="4.15693">
        <ele>134.345839</ele>
        <time>2023-04-27T12:14:46.820Z</time>
      </trkpt>
      <trkpt lat="43.80093" lon="4.15695">
        <ele>133.716187</ele>
        <time>2023-04-27T12:14:50.105Z</time>
      </trkpt>
      <trkpt lat="43.80117" lon="4.15694">
        <ele>131.892077</ele>
        <time>2023-04-27T12:14:59.589Z</time>
      </trkpt>
      <trkpt lat="43.80119" lon="4.15706">
        <ele>131.19569</ele>
        <time>2023-04-27T12:15:03.170Z</time>
      </trkpt>
      <trkpt lat="43.80111" lon="4.15717">
        <ele>130.355233</ele>
        <time>2023-04-27T12:15:07.514Z</time>
      </trkpt>
      <trkpt lat="43.80098" lon="4.15751">
        <ele>128.213605</ele>
        <time>2023-04-27T12:15:18.502Z</time>
      </trkpt>
      <trkpt lat="43.80103" lon="4.15766">
        <ele>127.293033</ele>
        <time>2023-04-27T12:15:23.275Z</time>
      </trkpt>
      <trkpt lat="43.8011" lon="4.1577">
        <ele>126.716603</ele>
        <time>2023-04-27T12:15:26.199Z</time>
      </trkpt>
      <trkpt lat="43.80122" lon="4.15767">
        <ele>125.778062</ele>
        <time>2023-04-27T12:15:30.990Z</time>
      </trkpt>
      <trkpt lat="43.80134" lon="4.15756">
        <ele>124.619346</ele>
        <time>2023-04-27T12:15:37.008Z</time>
      </trkpt>
      <trkpt lat="43.80143" lon="4.15759">
        <ele>123.937792</ele>
        <time>2023-04-27T12:15:40.725Z</time>
      </trkpt>
      <trkpt lat="43.80196" lon="4.15791">
        <ele>120.029298</ele>
        <time>2023-04-27T12:16:00.201Z</time>
      </trkpt>
      <trkpt lat="43.80151" lon="4.15898">
        <ele>113.894555</ele>
        <time>2023-04-27T12:16:37.409Z</time>
      </trkpt>
      <trkpt lat="43.80135" lon="4.15943">
        <ele>111.965772</ele>
        <time>2023-04-27T12:16:52.816Z</time>
      </trkpt>
      <trkpt lat="43.80105" lon="4.16005">
        <ele>111.677253</ele>
        <time>2023-04-27T12:17:17.413Z</time>
      </trkpt>
      <trkpt lat="43.80095" lon="4.16035">
        <ele>111.550936</ele>
        <time>2023-04-27T12:17:28.514Z</time>
      </trkpt>
      <trkpt lat="43.80073" lon="4.16128">
        <ele>111.173734</ele>
        <time>2023-04-27T12:18:03.654Z</time>
      </trkpt>
      <trkpt lat="43.80068" lon="4.16141">
        <ele>111.118871</ele>
        <time>2023-04-27T12:18:09.295Z</time>
      </trkpt>
      <trkpt lat="43.80017" lon="4.16202">
        <ele>113.880203</ele>
        <time>2023-04-27T12:18:47.798Z</time>
      </trkpt>
      <trkpt lat="43.79965" lon="4.1625">
        <ele>117.064336</ele>
        <time>2023-04-27T12:19:26.072Z</time>
      </trkpt>
      <trkpt lat="43.7997" lon="4.16261">
        <ele>117.530234</ele>
        <time>2023-04-27T12:19:32.104Z</time>
      </trkpt>
      <trkpt lat="43.79998" lon="4.1626">
        <ele>118.935373</ele>
        <time>2023-04-27T12:19:49.229Z</time>
      </trkpt>
      <trkpt lat="43.80016" lon="4.16266">
        <ele>119.88845</ele>
        <time>2023-04-27T12:20:01.161Z</time>
      </trkpt>
      <trkpt lat="43.8006" lon="4.16292">
        <ele>121.829476</ele>
        <time>2023-04-27T12:20:31.129Z</time>
      </trkpt>
      <trkpt lat="43.80106" lon="4.16332">
        <ele>123.891264</ele>
        <time>2023-04-27T12:21:03.823Z</time>
      </trkpt>
      <trkpt lat="43.80176" lon="4.16384">
        <ele>126.880032</ele>
        <time>2023-04-27T12:21:46.537Z</time>
      </trkpt>
      <trkpt lat="43.80189" lon="4.16392">
        <ele>126.936421</ele>
        <time>2023-04-27T12:21:53.700Z</time>
      </trkpt>
      <trkpt lat="43.80205" lon="4.16397">
        <ele>126.665811</ele>
        <time>2023-04-27T12:22:01.306Z</time>
      </trkpt>
      <trkpt lat="43.80216" lon="4.16411">
        <ele>126.421569</ele>
        <time>2023-04-27T12:22:08.075Z</time>
      </trkpt>
      <trkpt lat="43.80246" lon="4.16424">
        <ele>125.898135</ele>
        <time>2023-04-27T12:22:22.149Z</time>
      </trkpt>
      <trkpt lat="43.80299" lon="4.16438">
        <ele>124.993643</ele>
        <time>2023-04-27T12:22:46.310Z</time>
      </trkpt>
      <trkpt lat="43.80322" lon="4.16435">
        <ele>124.59844</ele>
        <time>2023-04-27T12:22:57.123Z</time>
      </trkpt>
      <trkpt lat="43.80335" lon="4.1643">
        <ele>124.386909</ele>
        <time>2023-04-27T12:23:02.791Z</time>
      </trkpt>
      <trkpt lat="43.8033" lon="4.16404">
        <ele>124.118092</ele>
        <time>2023-04-27T12:23:12.043Z</time>
      </trkpt>
      <trkpt lat="43.80331" lon="4.16388">
        <ele>124.38646</ele>
        <time>2023-04-27T12:23:17.427Z</time>
      </trkpt>
      <trkpt lat="43.80331" lon="4.16381">
        <ele>124.493821</ele>
        <time>2023-04-27T12:23:19.569Z</time>
      </trkpt>
      <trkpt lat="43.80318" lon="4.16353">
        <ele>125.066</ele>
        <time>2023-04-27T12:23:31.345Z</time>
      </trkpt>
      <trkpt lat="43.80301" lon="4.16327">
        <ele>125.654714</ele>
        <time>2023-04-27T12:23:43.733Z</time>
      </trkpt>
      <trkpt lat="43.80287" lon="4.16258">
        <ele>126.852084</ele>
        <time>2023-04-27T12:24:10.784Z</time>
      </trkpt>
      <trkpt lat="43.80288" lon="4.16243">
        <ele>127.101385</ele>
        <time>2023-04-27T12:24:16.754Z</time>
      </trkpt>
      <trkpt lat="43.80293" lon="4.16231">
        <ele>127.322256</ele>
        <time>2023-04-27T12:24:22.192Z</time>
      </trkpt>
      <trkpt lat="43.80325" lon="4.16162">
        <ele>129.409583</ele>
        <time>2023-04-27T12:24:59.802Z</time>
      </trkpt>
      <trkpt lat="43.80334" lon="4.16153">
        <ele>130.071577</ele>
        <time>2023-04-27T12:25:07.243Z</time>
      </trkpt>
      <trkpt lat="43.80345" lon="4.16134">
        <ele>131.13446</ele>
        <time>2023-04-27T12:25:19.433Z</time>
      </trkpt>
      <trkpt lat="43.80359" lon="4.16116">
        <ele>132.2992</ele>
        <time>2023-04-27T12:25:32.394Z</time>
      </trkpt>
      <trkpt lat="43.80401" lon="4.16077">
        <ele>135.327805</ele>
        <time>2023-04-27T12:26:05.073Z</time>
      </trkpt>
      <trkpt lat="43.80443" lon="4.16054">
        <ele>138.054576</ele>
        <time>2023-04-27T12:26:32.803Z</time>
      </trkpt>
      <trkpt lat="43.80471" lon="4.16038">
        <ele>139.305074</ele>
        <time>2023-04-27T12:26:50.531Z</time>
      </trkpt>
      <trkpt lat="43.80484" lon="4.16026">
        <ele>139.541011</ele>
        <time>2023-04-27T12:26:59.023Z</time>
      </trkpt>
      <trkpt lat="43.80508" lon="4.16017">
        <ele>139.92062</ele>
        <time>2023-04-27T12:27:12.389Z</time>
      </trkpt>
      <trkpt lat="43.8053" lon="4.15991">
        <ele>140.35022</ele>
        <time>2023-04-27T12:27:26.359Z</time>
      </trkpt>
      <trkpt lat="43.80555" lon="4.15972">
        <ele>140.790271</ele>
        <time>2023-04-27T12:27:40.120Z</time>
      </trkpt>
      <trkpt lat="43.80567" lon="4.15989">
        <ele>141.047027</ele>
        <time>2023-04-27T12:27:48.693Z</time>
      </trkpt>
      <trkpt lat="43.80578" lon="4.15995">
        <ele>141.229704</ele>
        <time>2023-04-27T12:27:54.322Z</time>
      </trkpt>
      <trkpt lat="43.80594" lon="4.15987">
        <ele>141.484055</ele>
        <time>2023-04-27T12:28:02.523Z</time>
      </trkpt>
      <trkpt lat="43.80609" lon="4.15974">
        <ele>141.75613</ele>
        <time>2023-04-27T12:28:11.147Z</time>
      </trkpt>
      <trkpt lat="43.80615" lon="4.15955">
        <ele>142.217328</ele>
        <time>2023-04-27T12:28:18.449Z</time>
      </trkpt>
      <trkpt lat="43.80602" lon="4.1593">
        <ele>143.092257</ele>
        <time>2023-04-27T12:28:29.805Z</time>
      </trkpt>
      <trkpt lat="43.80603" lon="4.15916">
        <ele>143.499332</ele>
        <time>2023-04-27T12:28:35.082Z</time>
      </trkpt>
      <trkpt lat="43.80597" lon="4.15901">
        <ele>143.990371</ele>
        <time>2023-04-27T12:28:42.241Z</time>
      </trkpt>
      <trkpt lat="43.80597" lon="4.15893">
        <ele>144.196019</ele>
        <time>2023-04-27T12:28:45.030Z</time>
      </trkpt>
      <trkpt lat="43.80604" lon="4.1588">
        <ele>144.659693</ele>
        <time>2023-04-27T12:28:51.327Z</time>
      </trkpt>
      <trkpt lat="43.806" lon="4.15866">
        <ele>145.086748</ele>
        <time>2023-04-27T12:28:57.960Z</time>
      </trkpt>
      <trkpt lat="43.80597" lon="4.15844">
        <ele>145.734423</ele>
        <time>2023-04-27T12:29:08.439Z</time>
      </trkpt>
      <trkpt lat="43.80598" lon="4.15813">
        <ele>146.601676</ele>
        <time>2023-04-27T12:29:21.855Z</time>
      </trkpt>
      <trkpt lat="43.80599" lon="4.15811">
        <ele>146.666966</ele>
        <time>2023-04-27T12:29:22.871Z</time>
      </trkpt>
      <trkpt lat="43.80609" lon="4.15768">
        <ele>147.949978</ele>
        <time>2023-04-27T12:29:42.308Z</time>
      </trkpt>
      <trkpt lat="43.80611" lon="4.15745">
        <ele>148.592692</ele>
        <time>2023-04-27T12:29:52.147Z</time>
      </trkpt>
      <trkpt lat="43.80617" lon="4.15722">
        <ele>149.391579</ele>
        <time>2023-04-27T12:30:03.070Z</time>
      </trkpt>
      <trkpt lat="43.80621" lon="4.15686">
        <ele>150.646489</ele>
        <time>2023-04-27T12:30:19.028Z</time>
      </trkpt>
      <trkpt lat="43.80645" lon="4.15653">
        <ele>152.292424</ele>
        <time>2023-04-27T12:30:40.272Z</time>
      </trkpt>
      <trkpt lat="43.8065" lon="4.1564">
        <ele>152.797476</ele>
        <time>2023-04-27T12:30:46.812Z</time>
      </trkpt>
      <trkpt lat="43.80662" lon="4.15638">
        <ele>153.392424</ele>
        <time>2023-04-27T12:30:54.555Z</time>
      </trkpt>
      <trkpt lat="43.80666" lon="4.15702">
        <ele>155.614919</ele>
        <time>2023-04-27T12:31:21.910Z</time>
      </trkpt>
      <trkpt lat="43.80675" lon="4.15784">
        <ele>157.934378</ele>
        <time>2023-04-27T12:31:55.216Z</time>
      </trkpt>
      <trkpt lat="43.80684" lon="4.1583">
        <ele>158.601836</ele>
        <time>2023-04-27T12:32:12.403Z</time>
      </trkpt>
      <trkpt lat="43.8069" lon="4.15854">
        <ele>158.961635</ele>
        <time>2023-04-27T12:32:21.286Z</time>
      </trkpt>
      <trkpt lat="43.80702" lon="4.15882">
        <ele>159.414424</ele>
        <time>2023-04-27T12:32:32.705Z</time>
      </trkpt>
      <trkpt lat="43.80716" lon="4.15902">
        <ele>159.814805</ele>
        <time>2023-04-27T12:32:43.182Z</time>
      </trkpt>
      <trkpt lat="43.80721" lon="4.15915">
        <ele>160.023965</ele>
        <time>2023-04-27T12:32:48.746Z</time>
      </trkpt>
      <trkpt lat="43.80729" lon="4.15924">
        <ele>160.222474</ele>
        <time>2023-04-27T12:32:54.172Z</time>
      </trkpt>
      <trkpt lat="43.80729" lon="4.15937">
        <ele>160.395208</ele>
        <time>2023-04-27T12:32:58.809Z</time>
      </trkpt>
      <trkpt lat="43.80721" lon="4.15983">
        <ele>161.06142</ele>
        <time>2023-04-27T12:33:17.509Z</time>
      </trkpt>
      <trkpt lat="43.80709" lon="4.15985">
        <ele>161.042684</ele>
        <time>2023-04-27T12:33:24.196Z</time>
      </trkpt>
      <trkpt lat="43.80704" lon="4.16007">
        <ele>161.017064</ele>
        <time>2023-04-27T12:33:33.443Z</time>
      </trkpt>
      <trkpt lat="43.80693" lon="4.16032">
        <ele>160.98614</ele>
        <time>2023-04-27T12:33:44.253Z</time>
      </trkpt>
      <trkpt lat="43.80673" lon="4.16059">
        <ele>160.943006</ele>
        <time>2023-04-27T12:33:58.106Z</time>
      </trkpt>
      <trkpt lat="43.80658" lon="4.16083">
        <ele>160.908836</ele>
        <time>2023-04-27T12:34:09.721Z</time>
      </trkpt>
      <trkpt lat="43.80633" lon="4.1614">
        <ele>160.836627</ele>
        <time>2023-04-27T12:34:31.800Z</time>
      </trkpt>
      <trkpt lat="43.80643" lon="4.1616">
        <ele>160.809578</ele>
        <time>2023-04-27T12:34:40.329Z</time>
      </trkpt>
      <trkpt lat="43.80655" lon="4.16208">
        <ele>159.23695</ele>
        <time>2023-04-27T12:34:57.048Z</time>
      </trkpt>
      <trkpt lat="43.80657" lon="4.16221">
        <ele>158.655242</ele>
        <time>2023-04-27T12:35:01.406Z</time>
      </trkpt>
      <trkpt lat="43.80657" lon="4.16221">
        <ele>158.655242</ele>
        <time>2023-04-27T12:35:01.603Z</time>
      </trkpt>
      <trkpt lat="43.80657" lon="4.16221">
        <ele>158.655242</ele>
        <time>2023-04-27T12:35:01.603Z</time>
      </trkpt>
      <trkpt lat="43.80645" lon="4.16224">
        <ele>157.91746</ele>
        <time>2023-04-27T12:35:06.516Z</time>
      </trkpt>
      <trkpt lat="43.80647" lon="4.16232">
        <ele>157.540539</ele>
        <time>2023-04-27T12:35:09.026Z</time>
      </trkpt>
      <trkpt lat="43.80648" lon="4.16247">
        <ele>156.869903</ele>
        <time>2023-04-27T12:35:13.493Z</time>
      </trkpt>
      <trkpt lat="43.80648" lon="4.16262">
        <ele>156.202111</ele>
        <time>2023-04-27T12:35:17.953Z</time>
      </trkpt>
      <trkpt lat="43.80648" lon="4.16281">
        <ele>155.35624</ele>
        <time>2023-04-27T12:35:23.587Z</time>
      </trkpt>
      <trkpt lat="43.80647" lon="4.16288">
        <ele>155.038557</ele>
        <time>2023-04-27T12:35:25.709Z</time>
      </trkpt>
      <trkpt lat="43.80644" lon="4.16302">
        <ele>154.388389</ele>
        <time>2023-04-27T12:35:30.037Z</time>
      </trkpt>
      <trkpt lat="43.80644" lon="4.16326">
        <ele>153.31992</ele>
        <time>2023-04-27T12:35:37.168Z</time>
      </trkpt>
      <trkpt lat="43.80641" lon="4.16339">
        <ele>152.712297</ele>
        <time>2023-04-27T12:35:41.274Z</time>
      </trkpt>
      <trkpt lat="43.80641" lon="4.16345">
        <ele>152.44518</ele>
        <time>2023-04-27T12:35:43.052Z</time>
      </trkpt>
      <trkpt lat="43.80643" lon="4.16352">
        <ele>152.110009</ele>
        <time>2023-04-27T12:35:45.284Z</time>
      </trkpt>
      <trkpt lat="43.80642" lon="4.16363">
        <ele>151.616424</ele>
        <time>2023-04-27T12:35:48.590Z</time>
      </trkpt>
      <trkpt lat="43.80642" lon="4.16378">
        <ele>150.94863</ele>
        <time>2023-04-27T12:35:53.043Z</time>
      </trkpt>
      <trkpt lat="43.80643" lon="4.16387">
        <ele>150.543234</ele>
        <time>2023-04-27T12:35:55.788Z</time>
      </trkpt>
      <trkpt lat="43.80644" lon="4.16402">
        <ele>149.872597</ele>
        <time>2023-04-27T12:36:00.252Z</time>
      </trkpt>
      <trkpt lat="43.80644" lon="4.16405">
        <ele>149.739039</ele>
        <time>2023-04-27T12:36:01.184Z</time>
      </trkpt>
      <trkpt lat="43.80645" lon="4.16408">
        <ele>149.637682</ele>
        <time>2023-04-27T12:36:02.164Z</time>
      </trkpt>
      <trkpt lat="43.80649" lon="4.16413">
        <ele>149.451559</ele>
        <time>2023-04-27T12:36:04.376Z</time>
      </trkpt>
      <trkpt lat="43.8065" lon="4.16415">
        <ele>149.390892</ele>
        <time>2023-04-27T12:36:05.097Z</time>
      </trkpt>
      <trkpt lat="43.80656" lon="4.16425">
        <ele>149.066633</ele>
        <time>2023-04-27T12:36:08.972Z</time>
      </trkpt>
      <trkpt lat="43.80659" lon="4.16433">
        <ele>148.841839</ele>
        <time>2023-04-27T12:36:11.657Z</time>
      </trkpt>
      <trkpt lat="43.80657" lon="4.16441">
        <ele>148.630738</ele>
        <time>2023-04-27T12:36:14.166Z</time>
      </trkpt>
      <trkpt lat="43.80659" lon="4.16449">
        <ele>148.419637</ele>
        <time>2023-04-27T12:36:16.676Z</time>
      </trkpt>
      <trkpt lat="43.80659" lon="4.16456">
        <ele>148.245099</ele>
        <time>2023-04-27T12:36:18.750Z</time>
      </trkpt>
      <trkpt lat="43.80659" lon="4.16464">
        <ele>148.045627</ele>
        <time>2023-04-27T12:36:21.120Z</time>
      </trkpt>
      <trkpt lat="43.80658" lon="4.16467">
        <ele>147.963232</ele>
        <time>2023-04-27T12:36:22.101Z</time>
      </trkpt>
      <trkpt lat="43.80659" lon="4.16473">
        <ele>147.80969</ele>
        <time>2023-04-27T12:36:23.957Z</time>
      </trkpt>
      <trkpt lat="43.80656" lon="4.16477">
        <ele>147.665848</ele>
        <time>2023-04-27T12:36:25.681Z</time>
      </trkpt>
      <trkpt lat="43.80654" lon="4.1648">
        <ele>147.564014</ele>
        <time>2023-04-27T12:36:26.891Z</time>
      </trkpt>
      <trkpt lat="43.80654" lon="4.16486">
        <ele>147.41441</ele>
        <time>2023-04-27T12:36:28.669Z</time>
      </trkpt>
      <trkpt lat="43.80654" lon="4.16489">
        <ele>147.339608</ele>
        <time>2023-04-27T12:36:29.558Z</time>
      </trkpt>
      <trkpt lat="43.80655" lon="4.16494">
        <ele>147.21024</ele>
        <time>2023-04-27T12:36:31.096Z</time>
      </trkpt>
      <trkpt lat="43.80665" lon="4.16507">
        <ele>146.736492</ele>
        <time>2023-04-27T12:36:36.725Z</time>
      </trkpt>
      <trkpt lat="43.80672" lon="4.16503">
        <ele>146.478244</ele>
        <time>2023-04-27T12:36:39.852Z</time>
      </trkpt>
      <trkpt lat="43.80675" lon="4.16513">
        <ele>146.204074</ele>
        <time>2023-04-27T12:36:43.954Z</time>
      </trkpt>
      <trkpt lat="43.8068" lon="4.16519">
        <ele>145.97465</ele>
        <time>2023-04-27T12:36:47.199Z</time>
      </trkpt>
      <trkpt lat="43.80679" lon="4.1654">
        <ele>145.467738</ele>
        <time>2023-04-27T12:36:54.510Z</time>
      </trkpt>
      <trkpt lat="43.80683" lon="4.16568">
        <ele>144.741758</ele>
        <time>2023-04-27T12:37:03.852Z</time>
      </trkpt>
      <trkpt lat="43.8068" lon="4.16584">
        <ele>144.322505</ele>
        <time>2023-04-27T12:37:10.580Z</time>
      </trkpt>
      <trkpt lat="43.80683" lon="4.16607">
        <ele>143.748608</ele>
        <time>2023-04-27T12:37:17.869Z</time>
      </trkpt>
      <trkpt lat="43.80697" lon="4.16644">
        <ele>143.9755</ele>
        <time>2023-04-27T12:37:32.759Z</time>
      </trkpt>
      <trkpt lat="43.80715" lon="4.16668">
        <ele>144.516323</ele>
        <time>2023-04-27T12:37:47.435Z</time>
      </trkpt>
      <trkpt lat="43.8074" lon="4.16714">
        <ele>145.411492</ele>
        <time>2023-04-27T12:38:08.737Z</time>
      </trkpt>
      <trkpt lat="43.80741" lon="4.16732">
        <ele>145.690545</ele>
        <time>2023-04-27T12:38:15.959Z</time>
      </trkpt>
      <trkpt lat="43.80739" lon="4.16754">
        <ele>146.039969</ele>
        <time>2023-04-27T12:38:24.865Z</time>
      </trkpt>
      <trkpt lat="43.80741" lon="4.16792">
        <ele>146.645928</ele>
        <time>2023-04-27T12:38:39.964Z</time>
      </trkpt>
      <trkpt lat="43.80747" lon="4.1681">
        <ele>146.956896</ele>
        <time>2023-04-27T12:38:47.629Z</time>
      </trkpt>
      <trkpt lat="43.80759" lon="4.16829">
        <ele>147.349891</ele>
        <time>2023-04-27T12:38:57.297Z</time>
      </trkpt>
      <trkpt lat="43.80774" lon="4.16835">
        <ele>147.79454</ele>
        <time>2023-04-27T12:39:05.491Z</time>
      </trkpt>
      <trkpt lat="43.80793" lon="4.1685">
        <ele>148.448654</ele>
        <time>2023-04-27T12:39:17.335Z</time>
      </trkpt>
      <trkpt lat="43.80811" lon="4.16853">
        <ele>148.981305</ele>
        <time>2023-04-27T12:39:26.983Z</time>
      </trkpt>
      <trkpt lat="43.80821" lon="4.16851">
        <ele>149.284383</ele>
        <time>2023-04-27T12:39:32.508Z</time>
      </trkpt>
      <trkpt lat="43.80848" lon="4.16834">
        <ele>150.158155</ele>
        <time>2023-04-27T12:39:48.494Z</time>
      </trkpt>
      <trkpt lat="43.80865" lon="4.16829">
        <ele>150.682656</ele>
        <time>2023-04-27T12:39:58.166Z</time>
      </trkpt>
      <trkpt lat="43.80873" lon="4.16834">
        <ele>150.934101</ele>
        <time>2023-04-27T12:40:02.735Z</time>
      </trkpt>
      <trkpt lat="43.80901" lon="4.16833">
        <ele>151.762383</ele>
        <time>2023-04-27T12:40:17.923Z</time>
      </trkpt>
      <trkpt lat="43.80911" lon="4.16829">
        <ele>152.072957</ele>
        <time>2023-04-27T12:40:23.540Z</time>
      </trkpt>
      <trkpt lat="43.80939" lon="4.16845">
        <ele>153.082289</ele>
        <time>2023-04-27T12:40:40.145Z</time>
      </trkpt>
      <trkpt lat="43.80986" lon="4.16913">
        <ele>155.907162</ele>
        <time>2023-04-27T12:41:17.641Z</time>
      </trkpt>
      <trkpt lat="43.81018" lon="4.16947">
        <ele>157.586063</ele>
        <time>2023-04-27T12:41:41.296Z</time>
      </trkpt>
      <trkpt lat="43.81028" lon="4.16957">
        <ele>158.121348</ele>
        <time>2023-04-27T12:41:48.865Z</time>
      </trkpt>
      <trkpt lat="43.81046" lon="4.16966">
        <ele>158.908259</ele>
        <time>2023-04-27T12:42:00.181Z</time>
      </trkpt>
      <trkpt lat="43.81075" lon="4.16987">
        <ele>160.270436</ele>
        <time>2023-04-27T12:42:19.543Z</time>
      </trkpt>
      <trkpt lat="43.81082" lon="4.17006">
        <ele>160.865095</ele>
        <time>2023-04-27T12:42:28.245Z</time>
      </trkpt>
      <trkpt lat="43.81091" lon="4.17014">
        <ele>161.296842</ele>
        <time>2023-04-27T12:42:34.623Z</time>
      </trkpt>
      <trkpt lat="43.81095" lon="4.17032">
        <ele>161.837177</ele>
        <time>2023-04-27T12:42:42.596Z</time>
      </trkpt>
      <trkpt lat="43.81092" lon="4.17044">
        <ele>162.197623</ele>
        <time>2023-04-27T12:42:47.821Z</time>
      </trkpt>
      <trkpt lat="43.81086" lon="4.17072">
        <ele>163.04352</ele>
        <time>2023-04-27T12:43:00.041Z</time>
      </trkpt>
      <trkpt lat="43.81078" lon="4.1709">
        <ele>163.624188</ele>
        <time>2023-04-27T12:43:08.251Z</time>
      </trkpt>
      <trkpt lat="43.81066" lon="4.17106">
        <ele>164.292001</ele>
        <time>2023-04-27T12:43:17.765Z</time>
      </trkpt>
      <trkpt lat="43.81043" lon="4.17114">
        <ele>165.213078</ele>
        <time>2023-04-27T12:43:30.795Z</time>
      </trkpt>
      <trkpt lat="43.81" lon="4.1711">
        <ele>166.929301</ele>
        <time>2023-04-27T12:43:55.058Z</time>
      </trkpt>
      <trkpt lat="43.80983" lon="4.17121">
        <ele>167.467212</ele>
        <time>2023-04-27T12:44:05.304Z</time>
      </trkpt>
      <trkpt lat="43.80974" lon="4.17143">
        <ele>167.779767</ele>
        <time>2023-04-27T12:44:15.637Z</time>
      </trkpt>
      <trkpt lat="43.80979" lon="4.17237">
        <ele>168.923068</ele>
        <time>2023-04-27T12:44:51.701Z</time>
      </trkpt>
      <trkpt lat="43.80969" lon="4.17277">
        <ele>169.444996</ele>
        <time>2023-04-27T12:45:07.372Z</time>
      </trkpt>
      <trkpt lat="43.80966" lon="4.17281">
        <ele>169.514175</ele>
        <time>2023-04-27T12:45:09.426Z</time>
      </trkpt>
      <trkpt lat="43.80952" lon="4.17307">
        <ele>169.910458</ele>
        <time>2023-04-27T12:45:21.024Z</time>
      </trkpt>
      <trkpt lat="43.80961" lon="4.17306">
        <ele>170.068649</ele>
        <time>2023-04-27T12:45:25.537Z</time>
      </trkpt>
      <trkpt lat="43.80968" lon="4.17299">
        <ele>170.197802</ele>
        <time>2023-04-27T12:45:29.270Z</time>
      </trkpt>
      <trkpt lat="43.80987" lon="4.17269">
        <ele>169.917766</ele>
        <time>2023-04-27T12:45:43.229Z</time>
      </trkpt>
      <trkpt lat="43.80994" lon="4.1725">
        <ele>169.562664</ele>
        <time>2023-04-27T12:45:50.473Z</time>
      </trkpt>
      <trkpt lat="43.81005" lon="4.17177">
        <ele>168.312883</ele>
        <time>2023-04-27T12:46:15.525Z</time>
      </trkpt>
      <trkpt lat="43.81089" lon="4.17153">
        <ele>166.346036</ele>
        <time>2023-04-27T12:46:53.616Z</time>
      </trkpt>
      <trkpt lat="43.81099" lon="4.17144">
        <ele>165.795329</ele>
        <time>2023-04-27T12:46:59.294Z</time>
      </trkpt>
      <trkpt lat="43.81101" lon="4.17142">
        <ele>165.69671</ele>
        <time>2023-04-27T12:46:59.990Z</time>
      </trkpt>
      <trkpt lat="43.81124" lon="4.17114">
        <ele>163.788492</ele>
        <time>2023-04-27T12:47:13.518Z</time>
      </trkpt>
      <trkpt lat="43.81145" lon="4.1708">
        <ele>161.820826</ele>
        <time>2023-04-27T12:47:27.060Z</time>
      </trkpt>
      <trkpt lat="43.81157" lon="4.17053">
        <ele>160.409412</ele>
        <time>2023-04-27T12:47:36.616Z</time>
      </trkpt>
      <trkpt lat="43.8118" lon="4.17059">
        <ele>159.031628</ele>
        <time>2023-04-27T12:47:45.883Z</time>
      </trkpt>
      <trkpt lat="43.81183" lon="4.17057">
        <ele>158.816395</ele>
        <time>2023-04-27T12:47:47.322Z</time>
      </trkpt>
      <trkpt lat="43.81187" lon="4.17049">
        <ele>158.362873</ele>
        <time>2023-04-27T12:47:50.286Z</time>
      </trkpt>
      <trkpt lat="43.81193" lon="4.17046">
        <ele>157.998861</ele>
        <time>2023-04-27T12:47:52.710Z</time>
      </trkpt>
      <trkpt lat="43.81199" lon="4.17037">
        <ele>157.47097</ele>
        <time>2023-04-27T12:47:56.183Z</time>
      </trkpt>
      <trkpt lat="43.81212" lon="4.17035">
        <ele>156.657361</ele>
        <time>2023-04-27T12:48:01.436Z</time>
      </trkpt>
      <trkpt lat="43.81225" lon="4.1704">
        <ele>155.83374</ele>
        <time>2023-04-27T12:48:06.786Z</time>
      </trkpt>
      <trkpt lat="43.81246" lon="4.17036">
        <ele>155.12353</ele>
        <time>2023-04-27T12:48:15.017Z</time>
      </trkpt>
      <trkpt lat="43.81256" lon="4.17038">
        <ele>155.027229</ele>
        <time>2023-04-27T12:48:22.109Z</time>
      </trkpt>
      <trkpt lat="43.81273" lon="4.17029">
        <ele>154.860937</ele>
        <time>2023-04-27T12:48:29.250Z</time>
      </trkpt>
      <trkpt lat="43.81277" lon="4.1705">
        <ele>154.714256</ele>
        <time>2023-04-27T12:48:38.319Z</time>
      </trkpt>
      <trkpt lat="43.81271" lon="4.17065">
        <ele>154.594845</ele>
        <time>2023-04-27T12:48:43.647Z</time>
      </trkpt>
      <trkpt lat="43.81272" lon="4.17074">
        <ele>154.539144</ele>
        <time>2023-04-27T12:48:46.035Z</time>
      </trkpt>
      <trkpt lat="43.81282" lon="4.17074">
        <ele>154.445916</ele>
        <time>2023-04-27T12:48:50.374Z</time>
      </trkpt>
      <trkpt lat="43.81297" lon="4.17086">
        <ele>154.285665</ele>
        <time>2023-04-27T12:49:00.460Z</time>
      </trkpt>
      <trkpt lat="43.81308" lon="4.17084">
        <ele>154.181341</ele>
        <time>2023-04-27T12:49:04.986Z</time>
      </trkpt>
      <trkpt lat="43.81344" lon="4.17119">
        <ele>153.776161</ele>
        <time>2023-04-27T12:49:26.839Z</time>
      </trkpt>
      <trkpt lat="43.81344" lon="4.17119">
        <ele>153.776161</ele>
        <time>2023-04-27T12:49:27.436Z</time>
      </trkpt>
      <trkpt lat="43.81344" lon="4.17119">
        <ele>153.776161</ele>
        <time>2023-04-27T12:49:27.436Z</time>
      </trkpt>
      <trkpt lat="43.81335" lon="4.17137">
        <ele>153.632481</ele>
        <time>2023-04-27T12:49:33.827Z</time>
      </trkpt>
      <trkpt lat="43.81331" lon="4.17133">
        <ele>153.58695</ele>
        <time>2023-04-27T12:49:35.852Z</time>
      </trkpt>
      <trkpt lat="43.8133" lon="4.17131">
        <ele>153.570743</ele>
        <time>2023-04-27T12:49:36.573Z</time>
      </trkpt>
      <trkpt lat="43.81325" lon="4.17135">
        <ele>154.060874</ele>
        <time>2023-04-27T12:49:38.947Z</time>
      </trkpt>
      <trkpt lat="43.81317" lon="4.17136">
        <ele>154.813768</ele>
        <time>2023-04-27T12:49:42.337Z</time>
      </trkpt>
      <trkpt lat="43.81315" lon="4.17138">
        <ele>155.044941</ele>
        <time>2023-04-27T12:49:43.350Z</time>
      </trkpt>
      <trkpt lat="43.81314" lon="4.17141">
        <ele>155.268454</ele>
        <time>2023-04-27T12:49:44.330Z</time>
      </trkpt>
      <trkpt lat="43.81314" lon="4.17145">
        <ele>155.539</ele>
        <time>2023-04-27T12:49:45.516Z</time>
      </trkpt>
      <trkpt lat="43.81316" lon="4.17152">
        <ele>156.048218</ele>
        <time>2023-04-27T12:49:47.747Z</time>
      </trkpt>
      <trkpt lat="43.81317" lon="4.17155">
        <ele>156.271731</ele>
        <time>2023-04-27T12:49:48.726Z</time>
      </trkpt>
      <trkpt lat="43.81317" lon="4.17158">
        <ele>156.474641</ele>
        <time>2023-04-27T12:49:49.615Z</time>
      </trkpt>
      <trkpt lat="43.8132" lon="4.17164">
        <ele>156.96836</ele>
        <time>2023-04-27T12:49:51.778Z</time>
      </trkpt>
      <trkpt lat="43.81321" lon="4.17167">
        <ele>157.191873</ele>
        <time>2023-04-27T12:49:52.758Z</time>
      </trkpt>
      <trkpt lat="43.81321" lon="4.17175">
        <ele>157.732965</ele>
        <time>2023-04-27T12:49:55.128Z</time>
      </trkpt>
      <trkpt lat="43.8132" lon="4.17179">
        <ele>158.019288</ele>
        <time>2023-04-27T12:49:56.383Z</time>
      </trkpt>
      <trkpt lat="43.81321" lon="4.17181">
        <ele>158.183861</ele>
        <time>2023-04-27T12:49:57.454Z</time>
      </trkpt>
      <trkpt lat="43.81319" lon="4.17187">
        <ele>158.630886</ele>
        <time>2023-04-27T12:49:59.416Z</time>
      </trkpt>
      <trkpt lat="43.81319" lon="4.1719">
        <ele>158.833795</ele>
        <time>2023-04-27T12:50:00.307Z</time>
      </trkpt>
      <trkpt lat="43.8132" lon="4.17193">
        <ele>159.057308</ele>
        <time>2023-04-27T12:50:01.286Z</time>
      </trkpt>
      <trkpt lat="43.81325" lon="4.172">
        <ele>159.72349</ele>
        <time>2023-04-27T12:50:04.205Z</time>
      </trkpt>
      <trkpt lat="43.81326" lon="4.17206">
        <ele>160.139993</ele>
        <time>2023-04-27T12:50:06.032Z</time>
      </trkpt>
      <trkpt lat="43.81325" lon="4.17212">
        <ele>160.556495</ele>
        <time>2023-04-27T12:50:07.856Z</time>
      </trkpt>
      <trkpt lat="43.81323" lon="4.17217">
        <ele>160.94316</ele>
        <time>2023-04-27T12:50:09.550Z</time>
      </trkpt>
      <trkpt lat="43.8132" lon="4.17223">
        <ele>161.436879</ele>
        <time>2023-04-27T12:50:11.717Z</time>
      </trkpt>
      <trkpt lat="43.81313" lon="4.17232">
        <ele>162.331889</ele>
        <time>2023-04-27T12:50:15.778Z</time>
      </trkpt>
      <trkpt lat="43.81308" lon="4.17237">
        <ele>162.909822</ele>
        <time>2023-04-27T12:50:18.311Z</time>
      </trkpt>
      <trkpt lat="43.81308" lon="4.17251">
        <ele>163.856736</ele>
        <time>2023-04-27T12:50:22.465Z</time>
      </trkpt>
      <trkpt lat="43.81307" lon="4.17261">
        <ele>164.539566</ele>
        <time>2023-04-27T12:50:25.457Z</time>
      </trkpt>
      <trkpt lat="43.81298" lon="4.17278">
        <ele>165.965653</ele>
        <time>2023-04-27T12:50:31.840Z</time>
      </trkpt>
      <trkpt lat="43.81296" lon="4.17284">
        <ele>166.41268</ele>
        <time>2023-04-27T12:50:33.801Z</time>
      </trkpt>
      <trkpt lat="43.81292" lon="4.17291">
        <ele>167.016609</ele>
        <time>2023-04-27T12:50:36.510Z</time>
      </trkpt>
      <trkpt lat="43.81291" lon="4.17299">
        <ele>167.565762</ele>
        <time>2023-04-27T12:50:38.915Z</time>
      </trkpt>
      <trkpt lat="43.81288" lon="4.17306">
        <ele>168.116428</ele>
        <time>2023-04-27T12:50:41.333Z</time>
      </trkpt>
      <trkpt lat="43.81287" lon="4.17317">
        <ele>168.866315</ele>
        <time>2023-04-27T12:50:44.648Z</time>
      </trkpt>
      <trkpt lat="43.81286" lon="4.17321">
        <ele>169.152639</ele>
        <time>2023-04-27T12:50:45.907Z</time>
      </trkpt>
      <trkpt lat="43.81284" lon="4.17326">
        <ele>169.539305</ele>
        <time>2023-04-27T12:50:47.603Z</time>
      </trkpt>
      <trkpt lat="43.81283" lon="4.17331">
        <ele>169.890239</ele>
        <time>2023-04-27T12:50:49.143Z</time>
      </trkpt>
      <trkpt lat="43.81281" lon="4.17337">
        <ele>170.337266</ele>
        <time>2023-04-27T12:50:51.174Z</time>
      </trkpt>
      <trkpt lat="43.81278" lon="4.17343">
        <ele>170.753541</ele>
        <time>2023-04-27T12:50:53.337Z</time>
      </trkpt>
      <trkpt lat="43.81275" lon="4.17345">
        <ele>171.006045</ele>
        <time>2023-04-27T12:50:54.704Z</time>
      </trkpt>
      <trkpt lat="43.81272" lon="4.17353">
        <ele>171.499497</ele>
        <time>2023-04-27T12:50:57.390Z</time>
      </trkpt>
      <trkpt lat="43.81268" lon="4.17358">
        <ele>171.908076</ele>
        <time>2023-04-27T12:50:59.613Z</time>
      </trkpt>
      <trkpt lat="43.81266" lon="4.17363">
        <ele>172.220969</ele>
        <time>2023-04-27T12:51:01.311Z</time>
      </trkpt>
      <trkpt lat="43.81258" lon="4.17371">
        <ele>172.969236</ele>
        <time>2023-04-27T12:51:05.411Z</time>
      </trkpt>
      <trkpt lat="43.81247" lon="4.17379">
        <ele>173.911476</ele>
        <time>2023-04-27T12:51:10.514Z</time>
      </trkpt>
      <trkpt lat="43.81238" lon="4.17392">
        <ele>174.897502</ele>
        <time>2023-04-27T12:51:15.870Z</time>
      </trkpt>
      <trkpt lat="43.81236" lon="4.17395">
        <ele>175.121047</ele>
        <time>2023-04-27T12:51:17.081Z</time>
      </trkpt>
      <trkpt lat="43.81227" lon="4.17407">
        <ele>176.068336</ele>
        <time>2023-04-27T12:51:22.251Z</time>
      </trkpt>
      <trkpt lat="43.81224" lon="4.17409">
        <ele>176.32084</ele>
        <time>2023-04-27T12:51:23.618Z</time>
      </trkpt>
      <trkpt lat="43.81219" lon="4.17415">
        <ele>176.822503</ele>
        <time>2023-04-27T12:51:26.335Z</time>
      </trkpt>
      <trkpt lat="43.81216" lon="4.17417">
        <ele>177.075007</ele>
        <time>2023-04-27T12:51:27.705Z</time>
      </trkpt>
      <trkpt lat="43.81212" lon="4.17421">
        <ele>177.449142</ele>
        <time>2023-04-27T12:51:29.733Z</time>
      </trkpt>
      <trkpt lat="43.81208" lon="4.17424">
        <ele>177.794116</ele>
        <time>2023-04-27T12:51:31.602Z</time>
      </trkpt>
      <trkpt lat="43.81203" lon="4.17425">
        <ele>178.177284</ele>
        <time>2023-04-27T12:51:33.679Z</time>
      </trkpt>
      <trkpt lat="43.81204" lon="4.17421">
        <ele>178.41416</ele>
        <time>2023-04-27T12:51:35.047Z</time>
      </trkpt>
      <trkpt lat="43.81208" lon="4.17423">
        <ele>178.758185</ele>
        <time>2023-04-27T12:51:37.648Z</time>
      </trkpt>
      <trkpt lat="43.81204" lon="4.17436">
        <ele>179.554089</ele>
        <time>2023-04-27T12:51:42.996Z</time>
      </trkpt>
      <trkpt lat="43.8121" lon="4.17445">
        <ele>180.164003</ele>
        <time>2023-04-27T12:51:47.479Z</time>
      </trkpt>
      <trkpt lat="43.812" lon="4.17456">
        <ele>181.118928</ele>
        <time>2023-04-27T12:51:57.104Z</time>
      </trkpt>
      <trkpt lat="43.81196" lon="4.17455">
        <ele>181.407357</ele>
        <time>2023-04-27T12:51:59.604Z</time>
      </trkpt>
      <trkpt lat="43.81193" lon="4.17482">
        <ele>182.872548</ele>
        <time>2023-04-27T12:52:09.325Z</time>
      </trkpt>
      <trkpt lat="43.8118" lon="4.17486">
        <ele>183.873997</ele>
        <time>2023-04-27T12:52:18.696Z</time>
      </trkpt>
      <trkpt lat="43.8118" lon="4.17494">
        <ele>184.159109</ele>
        <time>2023-04-27T12:52:21.837Z</time>
      </trkpt>
      <trkpt lat="43.8117" lon="4.17531">
        <ele>184.842895</ele>
        <time>2023-04-27T12:52:36.261Z</time>
      </trkpt>
      <trkpt lat="43.81173" lon="4.17552">
        <ele>185.226151</ele>
        <time>2023-04-27T12:52:45.370Z</time>
      </trkpt>
      <trkpt lat="43.8117" lon="4.17573">
        <ele>185.60443</ele>
        <time>2023-04-27T12:52:53.094Z</time>
      </trkpt>
      <trkpt lat="43.81173" lon="4.17589">
        <ele>185.901483</ele>
        <time>2023-04-27T12:53:01.561Z</time>
      </trkpt>
      <trkpt lat="43.81166" lon="4.17598">
        <ele>186.128778</ele>
        <time>2023-04-27T12:53:06.172Z</time>
      </trkpt>
      <trkpt lat="43.81166" lon="4.17607">
        <ele>186.290393</ele>
        <time>2023-04-27T12:53:09.472Z</time>
      </trkpt>
      <trkpt lat="43.81169" lon="4.17621">
        <ele>186.544866</ele>
        <time>2023-04-27T12:53:14.640Z</time>
      </trkpt>
      <trkpt lat="43.81177" lon="4.17641">
        <ele>186.955093</ele>
        <time>2023-04-27T12:53:22.931Z</time>
      </trkpt>
      <trkpt lat="43.81179" lon="4.17653">
        <ele>187.162789</ele>
        <time>2023-04-27T12:53:27.136Z</time>
      </trkpt>
      <trkpt lat="43.81178" lon="4.1767">
        <ele>187.474231</ele>
        <time>2023-04-27T12:53:33.507Z</time>
      </trkpt>
      <trkpt lat="43.81181" lon="4.17682">
        <ele>187.693027</ele>
        <time>2023-04-27T12:53:37.933Z</time>
      </trkpt>
      <trkpt lat="43.81173" lon="4.17705">
        <ele>188.158542</ele>
        <time>2023-04-27T12:53:47.509Z</time>
      </trkpt>
      <trkpt lat="43.8117" lon="4.17706">
        <ele>188.228294</ele>
        <time>2023-04-27T12:53:48.989Z</time>
      </trkpt>
      <trkpt lat="43.81167" lon="4.17722">
        <ele>188.54397</ele>
        <time>2023-04-27T12:53:55.131Z</time>
      </trkpt>
      <trkpt lat="43.81148" lon="4.17739">
        <ele>189.324556</ele>
        <time>2023-04-27T12:54:06.570Z</time>
      </trkpt>
      <trkpt lat="43.81136" lon="4.17772">
        <ele>190.265599</ele>
        <time>2023-04-27T12:54:20.692Z</time>
      </trkpt>
      <trkpt lat="43.81134" lon="4.17803">
        <ele>191.05044</ele>
        <time>2023-04-27T12:54:32.839Z</time>
      </trkpt>
      <trkpt lat="43.81146" lon="4.17838">
        <ele>192.05871</ele>
        <time>2023-04-27T12:54:49.198Z</time>
      </trkpt>
      <trkpt lat="43.81166" lon="4.17863">
        <ele>193.010236</ele>
        <time>2023-04-27T12:55:05.241Z</time>
      </trkpt>
      <trkpt lat="43.81164" lon="4.17876">
        <ele>193.346602</ele>
        <time>2023-04-27T12:55:11.014Z</time>
      </trkpt>
      <trkpt lat="43.81167" lon="4.17906">
        <ele>194.110707</ele>
        <time>2023-04-27T12:55:24.131Z</time>
      </trkpt>
      <trkpt lat="43.81161" lon="4.17922">
        <ele>194.594701</ele>
        <time>2023-04-27T12:55:32.171Z</time>
      </trkpt>
      <trkpt lat="43.81157" lon="4.17924">
        <ele>194.739684</ele>
        <time>2023-04-27T12:55:34.555Z</time>
      </trkpt>
      <trkpt lat="43.81152" lon="4.17925">
        <ele>194.882792</ele>
        <time>2023-04-27T12:55:37.419Z</time>
      </trkpt>
      <trkpt lat="43.81149" lon="4.17933">
        <ele>194.972081</ele>
        <time>2023-04-27T12:55:41.173Z</time>
      </trkpt>
      <trkpt lat="43.81146" lon="4.17944">
        <ele>195.087465</ele>
        <time>2023-04-27T12:55:45.871Z</time>
      </trkpt>
      <trkpt lat="43.81149" lon="4.17962">
        <ele>195.261729</ele>
        <time>2023-04-27T12:55:52.907Z</time>
      </trkpt>
      <trkpt lat="43.8114" lon="4.17976">
        <ele>195.443422</ele>
        <time>2023-04-27T12:56:00.194Z</time>
      </trkpt>
      <trkpt lat="43.81135" lon="4.17995">
        <ele>195.641312</ele>
        <time>2023-04-27T12:56:07.698Z</time>
      </trkpt>
      <trkpt lat="43.81127" lon="4.17999">
        <ele>195.755397</ele>
        <time>2023-04-27T12:56:11.983Z</time>
      </trkpt>
      <trkpt lat="43.81114" lon="4.17998">
        <ele>195.935243</ele>
        <time>2023-04-27T12:56:18.647Z</time>
      </trkpt>
      <trkpt lat="43.81102" lon="4.18002">
        <ele>196.100338</ele>
        <time>2023-04-27T12:56:24.373Z</time>
      </trkpt>
      <trkpt lat="43.81102" lon="4.1801">
        <ele>196.179776</ele>
        <time>2023-04-27T12:56:27.290Z</time>
      </trkpt>
      <trkpt lat="43.81114" lon="4.18024">
        <ele>196.38049</ele>
        <time>2023-04-27T12:56:34.643Z</time>
      </trkpt>
      <trkpt lat="43.81098" lon="4.18071">
        <ele>196.8856</ele>
        <time>2023-04-27T12:56:52.677Z</time>
      </trkpt>
      <trkpt lat="43.81094" lon="4.18106">
        <ele>197.234996</ele>
        <time>2023-04-27T12:57:05.112Z</time>
      </trkpt>
      <trkpt lat="43.81086" lon="4.18129">
        <ele>197.046338</ele>
        <time>2023-04-27T12:57:13.923Z</time>
      </trkpt>
      <trkpt lat="43.81077" lon="4.1814">
        <ele>196.795835</ele>
        <time>2023-04-27T12:57:19.765Z</time>
      </trkpt>
      <trkpt lat="43.81066" lon="4.18155">
        <ele>196.48899</ele>
        <time>2023-04-27T12:57:27.378Z</time>
      </trkpt>
      <trkpt lat="43.81065" lon="4.18164">
        <ele>196.35419</ele>
        <time>2023-04-27T12:57:30.409Z</time>
      </trkpt>
      <trkpt lat="43.81067" lon="4.18172">
        <ele>196.238192</ele>
        <time>2023-04-27T12:57:32.950Z</time>
      </trkpt>
      <trkpt lat="43.81064" lon="4.18177">
        <ele>196.1429</ele>
        <time>2023-04-27T12:57:35.159Z</time>
      </trkpt>
      <trkpt lat="43.81052" lon="4.18182">
        <ele>195.874676</ele>
        <time>2023-04-27T12:57:41.399Z</time>
      </trkpt>
      <trkpt lat="43.81043" lon="4.18193">
        <ele>195.642634</ele>
        <time>2023-04-27T12:57:46.632Z</time>
      </trkpt>
      <trkpt lat="43.81029" lon="4.18199">
        <ele>195.345037</ele>
        <time>2023-04-27T12:57:53.149Z</time>
      </trkpt>
      <trkpt lat="43.81018" lon="4.18198">
        <ele>195.118908</ele>
        <time>2023-04-27T12:57:58.315Z</time>
      </trkpt>
      <trkpt lat="43.80978" lon="4.18195">
        <ele>194.304591</ele>
        <time>2023-04-27T12:58:16.258Z</time>
      </trkpt>
      <trkpt lat="43.80973" lon="4.18199">
        <ele>194.180064</ele>
        <time>2023-04-27T12:58:18.914Z</time>
      </trkpt>
      <trkpt lat="43.80968" lon="4.18203">
        <ele>194.064787</ele>
        <time>2023-04-27T12:58:21.310Z</time>
      </trkpt>
      <trkpt lat="43.80934" lon="4.18207">
        <ele>193.059212</ele>
        <time>2023-04-27T12:58:36.459Z</time>
      </trkpt>
      <trkpt lat="43.80913" lon="4.18213">
        <ele>192.115017</ele>
        <time>2023-04-27T12:58:46.294Z</time>
      </trkpt>
      <trkpt lat="43.80826" lon="4.18257">
        <ele>188.092261</ele>
        <time>2023-04-27T12:59:27.175Z</time>
      </trkpt>
      <trkpt lat="43.80787" lon="4.1828">
        <ele>186.222432</ele>
        <time>2023-04-27T12:59:45.054Z</time>
      </trkpt>
      <trkpt lat="43.80737" lon="4.18297">
        <ele>183.481859</ele>
        <time>2023-04-27T13:00:06.538Z</time>
      </trkpt>
      <trkpt lat="43.80675" lon="4.18307">
        <ele>180.111079</ele>
        <time>2023-04-27T13:00:32.763Z</time>
      </trkpt>
      <trkpt lat="43.80616" lon="4.183">
        <ele>176.85108</ele>
        <time>2023-04-27T13:00:58.284Z</time>
      </trkpt>
      <trkpt lat="43.80603" lon="4.18281">
        <ele>175.838094</ele>
        <time>2023-04-27T13:01:06.696Z</time>
      </trkpt>
      <trkpt lat="43.80579" lon="4.18247">
        <ele>174.582185</ele>
        <time>2023-04-27T13:01:21.397Z</time>
      </trkpt>
      <trkpt lat="43.80518" lon="4.18209">
        <ele>172.113353</ele>
        <time>2023-04-27T13:01:50.802Z</time>
      </trkpt>
      <trkpt lat="43.80469" lon="4.18162">
        <ele>169.913424</ele>
        <time>2023-04-27T13:02:17.765Z</time>
      </trkpt>
      <trkpt lat="43.80412" lon="4.18088">
        <ele>167.905194</ele>
        <time>2023-04-27T13:02:52.818Z</time>
      </trkpt>
      <trkpt lat="43.80397" lon="4.18058">
        <ele>167.306144</ele>
        <time>2023-04-27T13:03:04.787Z</time>
      </trkpt>
      <trkpt lat="43.80362" lon="4.17966">
        <ele>165.633366</ele>
        <time>2023-04-27T13:03:39.083Z</time>
      </trkpt>
      <trkpt lat="43.80357" lon="4.17897">
        <ele>165.537061</ele>
        <time>2023-04-27T13:04:03.010Z</time>
      </trkpt>
      <trkpt lat="43.80361" lon="4.17763">
        <ele>166.408021</ele>
        <time>2023-04-27T13:04:51.621Z</time>
      </trkpt>
      <trkpt lat="43.80372" lon="4.177">
        <ele>166.826313</ele>
        <time>2023-04-27T13:05:16.974Z</time>
      </trkpt>
      <trkpt lat="43.80385" lon="4.17671">
        <ele>166.628621</ele>
        <time>2023-04-27T13:05:30.168Z</time>
      </trkpt>
      <trkpt lat="43.804" lon="4.17651">
        <ele>166.405923</ele>
        <time>2023-04-27T13:05:40.772Z</time>
      </trkpt>
      <trkpt lat="43.80412" lon="4.17649">
        <ele>166.281307</ele>
        <time>2023-04-27T13:05:46.461Z</time>
      </trkpt>
      <trkpt lat="43.80425" lon="4.1766">
        <ele>166.115634</ele>
        <time>2023-04-27T13:05:53.862Z</time>
      </trkpt>
      <trkpt lat="43.80432" lon="4.17687">
        <ele>165.896612</ele>
        <time>2023-04-27T13:06:03.520Z</time>
      </trkpt>
      <trkpt lat="43.80432" lon="4.17689">
        <ele>165.881741</ele>
        <time>2023-04-27T13:06:04.171Z</time>
      </trkpt>
      <trkpt lat="43.80441" lon="4.17697">
        <ele>165.770193</ele>
        <time>2023-04-27T13:06:08.968Z</time>
      </trkpt>
      <trkpt lat="43.80457" lon="4.17692">
        <ele>165.593927</ele>
        <time>2023-04-27T13:06:16.582Z</time>
      </trkpt>
      <trkpt lat="43.80465" lon="4.17677">
        <ele>165.448807</ele>
        <time>2023-04-27T13:06:22.648Z</time>
      </trkpt>
      <trkpt lat="43.80478" lon="4.17648">
        <ele>165.186384</ele>
        <time>2023-04-27T13:06:33.692Z</time>
      </trkpt>
      <trkpt lat="43.80487" lon="4.17604">
        <ele>164.662196</ele>
        <time>2023-04-27T13:06:48.315Z</time>
      </trkpt>
      <trkpt lat="43.80479" lon="4.17515">
        <ele>162.794893</ele>
        <time>2023-04-27T13:07:16.576Z</time>
      </trkpt>
      <trkpt lat="43.80453" lon="4.17445">
        <ele>161.144135</ele>
        <time>2023-04-27T13:07:41.039Z</time>
      </trkpt>
      <trkpt lat="43.80487" lon="4.17348">
        <ele>160.883731</ele>
        <time>2023-04-27T13:08:18.145Z</time>
      </trkpt>
      <trkpt lat="43.80519" lon="4.17297">
        <ele>162.863185</ele>
        <time>2023-04-27T13:08:45.120Z</time>
      </trkpt>
      <trkpt lat="43.80522" lon="4.17277">
        <ele>163.472693</ele>
        <time>2023-04-27T13:08:53.510Z</time>
      </trkpt>
      <trkpt lat="43.80567" lon="4.17299">
        <ele>165.418708</ele>
        <time>2023-04-27T13:09:24.270Z</time>
      </trkpt>
      <trkpt lat="43.80579" lon="4.17316">
        <ele>166.11647</ele>
        <time>2023-04-27T13:09:35.329Z</time>
      </trkpt>
      <trkpt lat="43.80568" lon="4.1734">
        <ele>166.961228</ele>
        <time>2023-04-27T13:09:49.398Z</time>
      </trkpt>
      <trkpt lat="43.80548" lon="4.1735">
        <ele>167.634305</ele>
        <time>2023-04-27T13:10:03.092Z</time>
      </trkpt>
      <trkpt lat="43.80536" lon="4.17368">
        <ele>168.1627</ele>
        <time>2023-04-27T13:10:14.467Z</time>
      </trkpt>
      <trkpt lat="43.80535" lon="4.17393">
        <ele>168.699434</ele>
        <time>2023-04-27T13:10:24.962Z</time>
      </trkpt>
      <trkpt lat="43.80549" lon="4.1743">
        <ele>169.615864</ele>
        <time>2023-04-27T13:10:42.994Z</time>
      </trkpt>
      <trkpt lat="43.80579" lon="4.17483">
        <ele>171.09152</ele>
        <time>2023-04-27T13:11:09.112Z</time>
      </trkpt>
      <trkpt lat="43.80581" lon="4.17456">
        <ele>171.672788</ele>
        <time>2023-04-27T13:11:18.284Z</time>
      </trkpt>
      <trkpt lat="43.80585" lon="4.17435">
        <ele>172.160239</ele>
        <time>2023-04-27T13:11:26.004Z</time>
      </trkpt>
      <trkpt lat="43.80595" lon="4.17402">
        <ele>171.869418</ele>
        <time>2023-04-27T13:11:37.871Z</time>
      </trkpt>
      <trkpt lat="43.80616" lon="4.17335">
        <ele>169.456234</ele>
        <time>2023-04-27T13:12:01.324Z</time>
      </trkpt>
      <trkpt lat="43.80618" lon="4.17313">
        <ele>168.724985</ele>
        <time>2023-04-27T13:12:08.165Z</time>
      </trkpt>
      <trkpt lat="43.80616" lon="4.17299">
        <ele>168.251122</ele>
        <time>2023-04-27T13:12:12.576Z</time>
      </trkpt>
      <trkpt lat="43.80596" lon="4.17265">
        <ele>166.820924</ele>
        <time>2023-04-27T13:12:25.641Z</time>
      </trkpt>
      <trkpt lat="43.80569" lon="4.17232">
        <ele>165.178159</ele>
        <time>2023-04-27T13:12:40.564Z</time>
      </trkpt>
      <trkpt lat="43.8056" lon="4.17215">
        <ele>164.468856</ele>
        <time>2023-04-27T13:12:47.070Z</time>
      </trkpt>
      <trkpt lat="43.8055" lon="4.17183">
        <ele>163.674956</ele>
        <time>2023-04-27T13:12:57.585Z</time>
      </trkpt>
      <trkpt lat="43.8054" lon="4.17138">
        <ele>162.661883</ele>
        <time>2023-04-27T13:13:12.145Z</time>
      </trkpt>
      <trkpt lat="43.8053" lon="4.17131">
        <ele>162.318739</ele>
        <time>2023-04-27T13:13:17.111Z</time>
      </trkpt>
      <trkpt lat="43.8053" lon="4.17176">
        <ele>161.359491</ele>
        <time>2023-04-27T13:13:31.661Z</time>
      </trkpt>
      <trkpt lat="43.80531" lon="4.17193">
        <ele>161.003501</ele>
        <time>2023-04-27T13:13:36.949Z</time>
      </trkpt>
      <trkpt lat="43.80522" lon="4.17277">
        <ele>159.195107</ele>
        <time>2023-04-27T13:14:06.263Z</time>
      </trkpt>
      <trkpt lat="43.80455" lon="4.17287">
        <ele>160.373173</ele>
        <time>2023-04-27T13:14:39.781Z</time>
      </trkpt>
      <trkpt lat="43.80455" lon="4.17287">
        <ele>160.373173</ele>
        <time>2023-04-27T13:14:39.997Z</time>
      </trkpt>
      <trkpt lat="43.80455" lon="4.17287">
        <ele>160.373173</ele>
        <time>2023-04-27T13:14:39.997Z</time>
      </trkpt>
      <trkpt lat="43.80455" lon="4.17293">
        <ele>160.476507</ele>
        <time>2023-04-27T13:14:41.847Z</time>
      </trkpt>
      <trkpt lat="43.80441" lon="4.17295">
        <ele>160.799519</ele>
        <time>2023-04-27T13:14:47.625Z</time>
      </trkpt>
      <trkpt lat="43.80422" lon="4.17295">
        <ele>161.235582</ele>
        <time>2023-04-27T13:14:55.433Z</time>
      </trkpt>
      <trkpt lat="43.80417" lon="4.17298">
        <ele>161.360632</ele>
        <time>2023-04-27T13:14:57.672Z</time>
      </trkpt>
      <trkpt lat="43.80407" lon="4.17306">
        <ele>161.625646</ele>
        <time>2023-04-27T13:15:02.413Z</time>
      </trkpt>
      <trkpt lat="43.80392" lon="4.17321">
        <ele>162.0502</ele>
        <time>2023-04-27T13:15:10.015Z</time>
      </trkpt>
      <trkpt lat="43.80387" lon="4.17324">
        <ele>162.17525</ele>
        <time>2023-04-27T13:15:12.266Z</time>
      </trkpt>
      <trkpt lat="43.80386" lon="4.17326">
        <ele>162.215551</ele>
        <time>2023-04-27T13:15:12.987Z</time>
      </trkpt>
      <trkpt lat="43.80373" lon="4.17332">
        <ele>162.530027</ele>
        <time>2023-04-27T13:15:18.613Z</time>
      </trkpt>
      <trkpt lat="43.80366" lon="4.17334">
        <ele>162.694061</ele>
        <time>2023-04-27T13:15:21.547Z</time>
      </trkpt>
      <trkpt lat="43.80354" lon="4.1733">
        <ele>162.977327</ele>
        <time>2023-04-27T13:15:26.643Z</time>
      </trkpt>
      <trkpt lat="43.80351" lon="4.17327">
        <ele>163.062238</ele>
        <time>2023-04-27T13:15:28.162Z</time>
      </trkpt>
      <trkpt lat="43.80348" lon="4.17325">
        <ele>163.121357</ele>
        <time>2023-04-27T13:15:29.529Z</time>
      </trkpt>
      <trkpt lat="43.80346" lon="4.17313">
        <ele>163.199947</ele>
        <time>2023-04-27T13:15:33.179Z</time>
      </trkpt>
      <trkpt lat="43.80345" lon="4.1731">
        <ele>163.221034</ele>
        <time>2023-04-27T13:15:34.158Z</time>
      </trkpt>
      <trkpt lat="43.80343" lon="4.17308">
        <ele>163.242842</ele>
        <time>2023-04-27T13:15:35.171Z</time>
      </trkpt>
      <trkpt lat="43.8034" lon="4.17314">
        <ele>163.28942</ele>
        <time>2023-04-27T13:15:37.334Z</time>
      </trkpt>
      <trkpt lat="43.80336" lon="4.17317">
        <ele>163.329635</ele>
        <time>2023-04-27T13:15:39.222Z</time>
      </trkpt>
      <trkpt lat="43.80327" lon="4.17321">
        <ele>163.413204</ele>
        <time>2023-04-27T13:15:43.113Z</time>
      </trkpt>
      <trkpt lat="43.80318" lon="4.17328">
        <ele>163.504459</ele>
        <time>2023-04-27T13:15:47.351Z</time>
      </trkpt>
      <trkpt lat="43.8031" lon="4.17332">
        <ele>163.579657</ele>
        <time>2023-04-27T13:15:50.843Z</time>
      </trkpt>
      <trkpt lat="43.80303" lon="4.17333">
        <ele>163.641877</ele>
        <time>2023-04-27T13:15:53.733Z</time>
      </trkpt>
      <trkpt lat="43.80296" lon="4.17334">
        <ele>163.704097</ele>
        <time>2023-04-27T13:15:56.634Z</time>
      </trkpt>
      <trkpt lat="43.80289" lon="4.17338">
        <ele>163.771046</ele>
        <time>2023-04-27T13:15:59.743Z</time>
      </trkpt>
      <trkpt lat="43.80283" lon="4.17338">
        <ele>163.824096</ele>
        <time>2023-04-27T13:16:02.207Z</time>
      </trkpt>
      <trkpt lat="43.80274" lon="4.17344">
        <ele>163.912403</ele>
        <time>2023-04-27T13:16:06.308Z</time>
      </trkpt>
      <trkpt lat="43.80266" lon="4.17347">
        <ele>163.985682</ele>
        <time>2023-04-27T13:16:09.711Z</time>
      </trkpt>
      <trkpt lat="43.80265" lon="4.17345">
        <ele>163.999294</ele>
        <time>2023-04-27T13:16:10.353Z</time>
      </trkpt>
      <trkpt lat="43.80257" lon="4.17416">
        <ele>164.45772</ele>
        <time>2023-04-27T13:16:31.366Z</time>
      </trkpt>
      <trkpt lat="43.80231" lon="4.17459">
        <ele>163.931339</ele>
        <time>2023-04-27T13:16:47.349Z</time>
      </trkpt>
      <trkpt lat="43.80196" lon="4.17489">
        <ele>161.638186</ele>
        <time>2023-04-27T13:17:02.427Z</time>
      </trkpt>
      <trkpt lat="43.80157" lon="4.17497">
        <ele>159.443365</ele>
        <time>2023-04-27T13:17:16.341Z</time>
      </trkpt>
      <trkpt lat="43.80134" lon="4.17507">
        <ele>158.082408</ele>
        <time>2023-04-27T13:17:24.684Z</time>
      </trkpt>
      <trkpt lat="43.80098" lon="4.17508">
        <ele>156.040977</ele>
        <time>2023-04-27T13:17:37.226Z</time>
      </trkpt>
      <trkpt lat="43.80087" lon="4.17511">
        <ele>155.399484</ele>
        <time>2023-04-27T13:17:41.144Z</time>
      </trkpt>
      <trkpt lat="43.80049" lon="4.17544">
        <ele>153.587843</ele>
        <time>2023-04-27T13:17:57.126Z</time>
      </trkpt>
      <trkpt lat="43.80036" lon="4.1755">
        <ele>153.154691</ele>
        <time>2023-04-27T13:18:01.993Z</time>
      </trkpt>
      <trkpt lat="43.80023" lon="4.17547">
        <ele>152.724147</ele>
        <time>2023-04-27T13:18:06.855Z</time>
      </trkpt>
      <trkpt lat="43.79996" lon="4.1757">
        <ele>151.702018</ele>
        <time>2023-04-27T13:18:18.725Z</time>
      </trkpt>
      <trkpt lat="43.79987" lon="4.17581">
        <ele>151.303987</ele>
        <time>2023-04-27T13:18:23.493Z</time>
      </trkpt>
      <trkpt lat="43.79966" lon="4.17596">
        <ele>150.538763</ele>
        <time>2023-04-27T13:18:32.705Z</time>
      </trkpt>
      <trkpt lat="43.79957" lon="4.17613">
        <ele>150.053464</ele>
        <time>2023-04-27T13:18:38.725Z</time>
      </trkpt>
      <trkpt lat="43.79948" lon="4.17617">
        <ele>149.746891</ele>
        <time>2023-04-27T13:18:42.520Z</time>
      </trkpt>
      <trkpt lat="43.79939" lon="4.17631">
        <ele>149.29814</ele>
        <time>2023-04-27T13:18:48.084Z</time>
      </trkpt>
      <trkpt lat="43.79929" lon="4.17636">
        <ele>148.940252</ele>
        <time>2023-04-27T13:18:52.649Z</time>
      </trkpt>
      <trkpt lat="43.79899" lon="4.17629">
        <ele>147.83929</ele>
        <time>2023-04-27T13:19:05.070Z</time>
      </trkpt>
      <trkpt lat="43.79873" lon="4.17632">
        <ele>146.887785</ele>
        <time>2023-04-27T13:19:15.453Z</time>
      </trkpt>
      <trkpt lat="43.7986" lon="4.17641">
        <ele>146.343449</ele>
        <time>2023-04-27T13:19:21.344Z</time>
      </trkpt>
      <trkpt lat="43.79819" lon="4.17649">
        <ele>144.780646</ele>
        <time>2023-04-27T13:19:37.614Z</time>
      </trkpt>
      <trkpt lat="43.79796" lon="4.17664">
        <ele>143.854877</ele>
        <time>2023-04-27T13:19:46.681Z</time>
      </trkpt>
      <trkpt lat="43.79767" lon="4.17678">
        <ele>142.710502</ele>
        <time>2023-04-27T13:19:58.095Z</time>
      </trkpt>
      <trkpt lat="43.79713" lon="4.17719">
        <ele>137.778239</ele>
        <time>2023-04-27T13:20:18.442Z</time>
      </trkpt>
      <trkpt lat="43.79677" lon="4.17727">
        <ele>134.216415</ele>
        <time>2023-04-27T13:20:30.416Z</time>
      </trkpt>
      <trkpt lat="43.79651" lon="4.17724">
        <ele>131.641106</ele>
        <time>2023-04-27T13:20:39.115Z</time>
      </trkpt>
      <trkpt lat="43.79634" lon="4.17733">
        <ele>129.875515</ele>
        <time>2023-04-27T13:20:44.922Z</time>
      </trkpt>
      <trkpt lat="43.79634" lon="4.17733">
        <ele>129.875515</ele>
        <time>2023-04-27T13:20:45.341Z</time>
      </trkpt>
      <trkpt lat="43.79634" lon="4.17733">
        <ele>129.875515</ele>
        <time>2023-04-27T13:20:45.341Z</time>
      </trkpt>
      <trkpt lat="43.79635" lon="4.17752">
        <ele>128.525166</ele>
        <time>2023-04-27T13:20:51.128Z</time>
      </trkpt>
      <trkpt lat="43.79638" lon="4.17764">
        <ele>127.629686</ele>
        <time>2023-04-27T13:20:54.917Z</time>
      </trkpt>
      <trkpt lat="43.79637" lon="4.17768">
        <ele>127.331193</ele>
        <time>2023-04-27T13:20:56.178Z</time>
      </trkpt>
      <trkpt lat="43.79635" lon="4.17769">
        <ele>127.123476</ele>
        <time>2023-04-27T13:20:57.056Z</time>
      </trkpt>
      <trkpt lat="43.79629" lon="4.1777">
        <ele>126.533105</ele>
        <time>2023-04-27T13:20:59.551Z</time>
      </trkpt>
      <trkpt lat="43.79625" lon="4.17769">
        <ele>126.13603</ele>
        <time>2023-04-27T13:21:01.289Z</time>
      </trkpt>
      <trkpt lat="43.79621" lon="4.17766">
        <ele>125.691682</ele>
        <time>2023-04-27T13:21:03.183Z</time>
      </trkpt>
      <trkpt lat="43.79614" lon="4.17763">
        <ele>124.975874</ele>
        <time>2023-04-27T13:21:06.287Z</time>
      </trkpt>
      <trkpt lat="43.79611" lon="4.17762">
        <ele>124.674437</ele>
        <time>2023-04-27T13:21:07.559Z</time>
      </trkpt>
      <trkpt lat="43.79602" lon="4.17745">
        <ele>123.667862</ele>
        <time>2023-04-27T13:21:13.832Z</time>
      </trkpt>
      <trkpt lat="43.796" lon="4.17742">
        <ele>123.484753</ele>
        <time>2023-04-27T13:21:15.043Z</time>
      </trkpt>
      <trkpt lat="43.79598" lon="4.17742">
        <ele>123.360516</ele>
        <time>2023-04-27T13:21:16.016Z</time>
      </trkpt>
      <trkpt lat="43.79597" lon="4.17735">
        <ele>123.040563</ele>
        <time>2023-04-27T13:21:18.148Z</time>
      </trkpt>
      <trkpt lat="43.79597" lon="4.17731">
        <ele>122.861212</ele>
        <time>2023-04-27T13:21:19.368Z</time>
      </trkpt>
      <trkpt lat="43.79599" lon="4.17728">
        <ele>122.678103</ele>
        <time>2023-04-27T13:21:20.615Z</time>
      </trkpt>
      <trkpt lat="43.79601" lon="4.17726">
        <ele>122.524883</ele>
        <time>2023-04-27T13:21:21.643Z</time>
      </trkpt>
      <trkpt lat="43.796" lon="4.17724">
        <ele>122.415793</ele>
        <time>2023-04-27T13:21:22.365Z</time>
      </trkpt>
      <trkpt lat="43.79595" lon="4.17725">
        <ele>122.10198</ele>
        <time>2023-04-27T13:21:24.446Z</time>
      </trkpt>
      <trkpt lat="43.79593" lon="4.17725">
        <ele>121.977743</ele>
        <time>2023-04-27T13:21:25.270Z</time>
      </trkpt>
      <trkpt lat="43.79582" lon="4.1771">
        <ele>121.018966</ele>
        <time>2023-04-27T13:21:31.611Z</time>
      </trkpt>
      <trkpt lat="43.79579" lon="4.17704">
        <ele>120.691697</ele>
        <time>2023-04-27T13:21:33.805Z</time>
      </trkpt>
      <trkpt lat="43.79579" lon="4.17701">
        <ele>120.557184</ele>
        <time>2023-04-27T13:21:34.717Z</time>
      </trkpt>
      <trkpt lat="43.79579" lon="4.17697">
        <ele>120.377832</ele>
        <time>2023-04-27T13:21:35.933Z</time>
      </trkpt>
      <trkpt lat="43.79578" lon="4.17694">
        <ele>120.229667</ele>
        <time>2023-04-27T13:21:36.916Z</time>
      </trkpt>
      <trkpt lat="43.79577" lon="4.17693">
        <ele>120.153057</ele>
        <time>2023-04-27T13:21:37.423Z</time>
      </trkpt>
      <trkpt lat="43.79575" lon="4.1769">
        <ele>119.969948</ele>
        <time>2023-04-27T13:21:38.635Z</time>
      </trkpt>
      <trkpt lat="43.79575" lon="4.17685">
        <ele>119.745758</ele>
        <time>2023-04-27T13:21:40.120Z</time>
      </trkpt>
      <trkpt lat="43.79582" lon="4.1768">
        <ele>119.256535</ele>
        <time>2023-04-27T13:21:43.357Z</time>
      </trkpt>
      <trkpt lat="43.79583" lon="4.17677">
        <ele>119.108371</ele>
        <time>2023-04-27T13:21:44.337Z</time>
      </trkpt>
      <trkpt lat="43.79585" lon="4.17675">
        <ele>118.95515</ele>
        <time>2023-04-27T13:21:45.493Z</time>
      </trkpt>
      <trkpt lat="43.79587" lon="4.17669">
        <ele>118.658821</ele>
        <time>2023-04-27T13:21:47.452Z</time>
      </trkpt>
      <trkpt lat="43.7958" lon="4.17662">
        <ele>118.132096</ele>
        <time>2023-04-27T13:21:51.004Z</time>
      </trkpt>
      <trkpt lat="43.7958" lon="4.17662">
        <ele>118.132096</ele>
        <time>2023-04-27T13:21:51.006Z</time>
      </trkpt>
      <trkpt lat="43.79587" lon="4.17634">
        <ele>116.828425</ele>
        <time>2023-04-27T13:22:00.560Z</time>
      </trkpt>
      <trkpt lat="43.79598" lon="4.1762">
        <ele>115.876131</ele>
        <time>2023-04-27T13:22:06.588Z</time>
      </trkpt>
      <trkpt lat="43.79599" lon="4.17608">
        <ele>115.317926</ele>
        <time>2023-04-27T13:22:10.667Z</time>
      </trkpt>
      <trkpt lat="43.79607" lon="4.17579">
        <ele>113.940907</ele>
        <time>2023-04-27T13:22:20.764Z</time>
      </trkpt>
      <trkpt lat="43.79616" lon="4.1756">
        <ele>113.171329</ele>
        <time>2023-04-27T13:22:27.748Z</time>
      </trkpt>
      <trkpt lat="43.7962" lon="4.17545">
        <ele>112.903056</ele>
        <time>2023-04-27T13:22:33.505Z</time>
      </trkpt>
      <trkpt lat="43.79626" lon="4.17541">
        <ele>112.737528</ele>
        <time>2023-04-27T13:22:36.396Z</time>
      </trkpt>
      <trkpt lat="43.79631" lon="4.17533">
        <ele>112.551234</ele>
        <time>2023-04-27T13:22:39.381Z</time>
      </trkpt>
      <trkpt lat="43.79631" lon="4.17526">
        <ele>112.430609</ele>
        <time>2023-04-27T13:22:41.778Z</time>
      </trkpt>
      <trkpt lat="43.79637" lon="4.1751">
        <ele>112.124682</ele>
        <time>2023-04-27T13:22:47.845Z</time>
      </trkpt>
      <trkpt lat="43.79638" lon="4.17489">
        <ele>111.757835</ele>
        <time>2023-04-27T13:22:54.302Z</time>
      </trkpt>
      <trkpt lat="43.79647" lon="4.17469">
        <ele>111.357954</ele>
        <time>2023-04-27T13:23:02.121Z</time>
      </trkpt>
      <trkpt lat="43.79653" lon="4.17432">
        <ele>110.698242</ele>
        <time>2023-04-27T13:23:15.053Z</time>
      </trkpt>
      <trkpt lat="43.79671" lon="4.17411">
        <ele>110.135332</ele>
        <time>2023-04-27T13:23:26.066Z</time>
      </trkpt>
      <trkpt lat="43.79691" lon="4.17394">
        <ele>109.574016</ele>
        <time>2023-04-27T13:23:37.021Z</time>
      </trkpt>
      <trkpt lat="43.79703" lon="4.17373">
        <ele>109.119019</ele>
        <time>2023-04-27T13:23:45.898Z</time>
      </trkpt>
      <trkpt lat="43.79708" lon="4.17347">
        <ele>109.040245</ele>
        <time>2023-04-27T13:23:55.155Z</time>
      </trkpt>
      <trkpt lat="43.797" lon="4.1732">
        <ele>109.04162</ele>
        <time>2023-04-27T13:24:05.000Z</time>
      </trkpt>
      <trkpt lat="43.797" lon="4.17298">
        <ele>109.042706</ele>
        <time>2023-04-27T13:24:12.847Z</time>
      </trkpt>
      <trkpt lat="43.79705" lon="4.1728">
        <ele>109.043604</ele>
        <time>2023-04-27T13:24:19.362Z</time>
      </trkpt>
      <trkpt lat="43.79704" lon="4.17274">
        <ele>109.043876</ele>
        <time>2023-04-27T13:24:21.331Z</time>
      </trkpt>
      <trkpt lat="43.79697" lon="4.17269">
        <ele>109.044427</ele>
        <time>2023-04-27T13:24:25.347Z</time>
      </trkpt>
      <trkpt lat="43.79696" lon="4.17264">
        <ele>109.044697</ele>
        <time>2023-04-27T13:24:27.315Z</time>
      </trkpt>
      <trkpt lat="43.7971" lon="4.1726">
        <ele>109.045634</ele>
        <time>2023-04-27T13:24:34.172Z</time>
      </trkpt>
      <trkpt lat="43.79712" lon="4.1724">
        <ele>109.04656</ele>
        <time>2023-04-27T13:24:40.930Z</time>
      </trkpt>
      <trkpt lat="43.79714" lon="4.17237">
        <ele>109.046761</ele>
        <time>2023-04-27T13:24:42.384Z</time>
      </trkpt>
      <trkpt lat="43.79705" lon="4.17222">
        <ele>109.047673</ele>
        <time>2023-04-27T13:24:49.194Z</time>
      </trkpt>
      <trkpt lat="43.79704" lon="4.17214">
        <ele>109.048048</ele>
        <time>2023-04-27T13:24:52.088Z</time>
      </trkpt>
      <trkpt lat="43.7971" lon="4.17177">
        <ele>109.049828</ele>
        <time>2023-04-27T13:25:05.359Z</time>
      </trkpt>
      <trkpt lat="43.79709" lon="4.17165">
        <ele>109.050447</ele>
        <time>2023-04-27T13:25:10.152Z</time>
      </trkpt>
      <trkpt lat="43.79711" lon="4.17139">
        <ele>109.147431</ele>
        <time>2023-04-27T13:25:19.315Z</time>
      </trkpt>
      <trkpt lat="43.79708" lon="4.17116">
        <ele>109.321141</ele>
        <time>2023-04-27T13:25:28.423Z</time>
      </trkpt>
      <trkpt lat="43.79711" lon="4.17099">
        <ele>109.454388</ele>
        <time>2023-04-27T13:25:35.462Z</time>
      </trkpt>
      <trkpt lat="43.7971" lon="4.17083">
        <ele>109.570452</ele>
        <time>2023-04-27T13:25:41.251Z</time>
      </trkpt>
      <trkpt lat="43.7972" lon="4.17042">
        <ele>109.884363</ele>
        <time>2023-04-27T13:25:57.010Z</time>
      </trkpt>
      <trkpt lat="43.79723" lon="4.17034">
        <ele>109.953928</ele>
        <time>2023-04-27T13:26:00.364Z</time>
      </trkpt>
      <trkpt lat="43.79732" lon="4.17024">
        <ele>110.069269</ele>
        <time>2023-04-27T13:26:06.180Z</time>
      </trkpt>
      <trkpt lat="43.79756" lon="4.16984">
        <ele>110.452622</ele>
        <time>2023-04-27T13:26:24.600Z</time>
      </trkpt>
      <trkpt lat="43.7976" lon="4.1698">
        <ele>110.499102</ele>
        <time>2023-04-27T13:26:26.874Z</time>
      </trkpt>
      <trkpt lat="43.79764" lon="4.16976">
        <ele>110.548895</ele>
        <time>2023-04-27T13:26:29.291Z</time>
      </trkpt>
      <trkpt lat="43.7977" lon="4.16962">
        <ele>110.67073</ele>
        <time>2023-04-27T13:26:34.975Z</time>
      </trkpt>
      <trkpt lat="43.79792" lon="4.16968">
        <ele>110.909665</ele>
        <time>2023-04-27T13:26:46.420Z</time>
      </trkpt>
      <trkpt lat="43.79798" lon="4.16964">
        <ele>110.991778</ele>
        <time>2023-04-27T13:26:49.324Z</time>
      </trkpt>
      <trkpt lat="43.79802" lon="4.16954">
        <ele>111.103692</ele>
        <time>2023-04-27T13:26:53.292Z</time>
      </trkpt>
      <trkpt lat="43.79806" lon="4.16933">
        <ele>111.318147</ele>
        <time>2023-04-27T13:27:01.402Z</time>
      </trkpt>
      <trkpt lat="43.79805" lon="4.16928">
        <ele>111.373125</ele>
        <time>2023-04-27T13:27:03.475Z</time>
      </trkpt>
      <trkpt lat="43.79786" lon="4.16908">
        <ele>111.685091</ele>
        <time>2023-04-27T13:27:15.033Z</time>
      </trkpt>
      <trkpt lat="43.79779" lon="4.16896">
        <ele>111.840843</ele>
        <time>2023-04-27T13:27:21.048Z</time>
      </trkpt>
      <trkpt lat="43.79775" lon="4.16882">
        <ele>111.990499</ele>
        <time>2023-04-27T13:27:26.636Z</time>
      </trkpt>
      <trkpt lat="43.79772" lon="4.16865">
        <ele>112.163367</ele>
        <time>2023-04-27T13:27:33.062Z</time>
      </trkpt>
      <trkpt lat="43.79779" lon="4.16853">
        <ele>112.317508</ele>
        <time>2023-04-27T13:27:39.076Z</time>
      </trkpt>
      <trkpt lat="43.7978" lon="4.16835">
        <ele>112.491499</ele>
        <time>2023-04-27T13:27:45.630Z</time>
      </trkpt>
      <trkpt lat="43.79773" lon="4.16797">
        <ele>112.874111</ele>
        <time>2023-04-27T13:28:00.495Z</time>
      </trkpt>
      <trkpt lat="43.79774" lon="4.16754">
        <ele>113.292446</ele>
        <time>2023-04-27T13:28:16.326Z</time>
      </trkpt>
      <trkpt lat="43.79787" lon="4.16716">
        <ele>113.769245</ele>
        <time>2023-04-27T13:28:31.829Z</time>
      </trkpt>
      <trkpt lat="43.79789" lon="4.16699">
        <ele>113.95324</ele>
        <time>2023-04-27T13:28:37.394Z</time>
      </trkpt>
      <trkpt lat="43.79785" lon="4.16685">
        <ele>114.126868</ele>
        <time>2023-04-27T13:28:43.661Z</time>
      </trkpt>
      <trkpt lat="43.79804" lon="4.1664">
        <ele>114.701772</ele>
        <time>2023-04-27T13:29:03.056Z</time>
      </trkpt>
      <trkpt lat="43.79811" lon="4.16607">
        <ele>115.092754</ele>
        <time>2023-04-27T13:29:15.725Z</time>
      </trkpt>
      <trkpt lat="43.79818" lon="4.16589">
        <ele>115.333049</ele>
        <time>2023-04-27T13:29:24.388Z</time>
      </trkpt>
      <trkpt lat="43.79819" lon="4.16578">
        <ele>115.452713</ele>
        <time>2023-04-27T13:29:28.486Z</time>
      </trkpt>
      <trkpt lat="43.79825" lon="4.16568">
        <ele>115.588988</ele>
        <time>2023-04-27T13:29:32.934Z</time>
      </trkpt>
      <trkpt lat="43.79825" lon="4.16568">
        <ele>115.588988</ele>
        <time>2023-04-27T13:29:33.105Z</time>
      </trkpt>
      <trkpt lat="43.79825" lon="4.16568">
        <ele>115.588988</ele>
        <time>2023-04-27T13:29:33.105Z</time>
      </trkpt>
      <trkpt lat="43.79828" lon="4.16572">
        <ele>115.657102</ele>
        <time>2023-04-27T13:29:34.896Z</time>
      </trkpt>
      <trkpt lat="43.79831" lon="4.16568">
        <ele>115.722162</ele>
        <time>2023-04-27T13:29:36.609Z</time>
      </trkpt>
      <trkpt lat="43.79832" lon="4.1656">
        <ele>115.813732</ele>
        <time>2023-04-27T13:29:39.016Z</time>
      </trkpt>
      <trkpt lat="43.79834" lon="4.16554">
        <ele>115.888271</ele>
        <time>2023-04-27T13:29:40.975Z</time>
      </trkpt>
      <trkpt lat="43.79835" lon="4.16545">
        <ele>115.990972</ele>
        <time>2023-04-27T13:29:43.674Z</time>
      </trkpt>
      <trkpt lat="43.79839" lon="4.16534">
        <ele>116.129725</ele>
        <time>2023-04-27T13:29:47.324Z</time>
      </trkpt>
      <trkpt lat="43.79842" lon="4.16528">
        <ele>116.073567</ele>
        <time>2023-04-27T13:29:49.491Z</time>
      </trkpt>
      <trkpt lat="43.79846" lon="4.16516">
        <ele>115.971869</ele>
        <time>2023-04-27T13:29:53.411Z</time>
      </trkpt>
      <trkpt lat="43.79852" lon="4.16506">
        <ele>115.871817</ele>
        <time>2023-04-27T13:29:57.265Z</time>
      </trkpt>
      <trkpt lat="43.79855" lon="4.16495">
        <ele>115.781344</ele>
        <time>2023-04-27T13:30:00.749Z</time>
      </trkpt>
      <trkpt lat="43.79856" lon="4.16486">
        <ele>115.711282</ele>
        <time>2023-04-27T13:30:03.455Z</time>
      </trkpt>
      <trkpt lat="43.79855" lon="4.16478">
        <ele>115.648815</ele>
        <time>2023-04-27T13:30:05.864Z</time>
      </trkpt>
      <trkpt lat="43.79857" lon="4.16469">
        <ele>115.576362</ele>
        <time>2023-04-27T13:30:08.654Z</time>
      </trkpt>
      <trkpt lat="43.79858" lon="4.1646">
        <ele>115.5063</ele>
        <time>2023-04-27T13:30:11.353Z</time>
      </trkpt>
      <trkpt lat="43.79858" lon="4.16457">
        <ele>115.483219</ele>
        <time>2023-04-27T13:30:12.242Z</time>
      </trkpt>
      <trkpt lat="43.79855" lon="4.16455">
        <ele>115.44773</ele>
        <time>2023-04-27T13:30:13.609Z</time>
      </trkpt>
      <trkpt lat="43.79854" lon="4.16452">
        <ele>115.422305</ele>
        <time>2023-04-27T13:30:14.588Z</time>
      </trkpt>
      <trkpt lat="43.79852" lon="4.16449">
        <ele>115.390884</ele>
        <time>2023-04-27T13:30:15.798Z</time>
      </trkpt>
      <trkpt lat="43.79849" lon="4.16447">
        <ele>115.355395</ele>
        <time>2023-04-27T13:30:17.166Z</time>
      </trkpt>
      <trkpt lat="43.79841" lon="4.16446">
        <ele>115.269771</ele>
        <time>2023-04-27T13:30:20.466Z</time>
      </trkpt>
      <trkpt lat="43.79837" lon="4.16449">
        <ele>115.221286</ele>
        <time>2023-04-27T13:30:22.333Z</time>
      </trkpt>
      <trkpt lat="43.79834" lon="4.16453">
        <ele>115.176903</ele>
        <time>2023-04-27T13:30:24.043Z</time>
      </trkpt>
      <trkpt lat="43.79833" lon="4.16455">
        <ele>115.158184</ele>
        <time>2023-04-27T13:30:24.764Z</time>
      </trkpt>
      <trkpt lat="43.79832" lon="4.16461">
        <ele>115.110805</ele>
        <time>2023-04-27T13:30:26.589Z</time>
      </trkpt>
      <trkpt lat="43.79832" lon="4.16464">
        <ele>115.087723</ele>
        <time>2023-04-27T13:30:27.478Z</time>
      </trkpt>
      <trkpt lat="43.79831" lon="4.16468">
        <ele>115.055154</ele>
        <time>2023-04-27T13:30:28.732Z</time>
      </trkpt>
      <trkpt lat="43.79822" lon="4.16474">
        <ele>114.948687</ele>
        <time>2023-04-27T13:30:32.843Z</time>
      </trkpt>
      <trkpt lat="43.79816" lon="4.16469">
        <ele>114.869985</ele>
        <time>2023-04-27T13:30:35.891Z</time>
      </trkpt>
      <trkpt lat="43.79746" lon="4.16636">
        <ele>112.616725</ele>
        <time>2023-04-27T13:31:40.126Z</time>
      </trkpt>
      <trkpt lat="43.79732" lon="4.16678">
        <ele>111.9336</ele>
        <time>2023-04-27T13:31:55.789Z</time>
      </trkpt>
      <trkpt lat="43.79724" lon="4.16722">
        <ele>111.260497</ele>
        <time>2023-04-27T13:32:10.993Z</time>
      </trkpt>
      <trkpt lat="43.79715" lon="4.16716">
        <ele>111.055383</ele>
        <time>2023-04-27T13:32:15.550Z</time>
      </trkpt>
      <trkpt lat="43.79708" lon="4.16702">
        <ele>110.801401</ele>
        <time>2023-04-27T13:32:21.219Z</time>
      </trkpt>
      <trkpt lat="43.79706" lon="4.167">
        <ele>110.733495</ele>
        <time>2023-04-27T13:32:22.749Z</time>
      </trkpt>
      <trkpt lat="43.79699" lon="4.16699">
        <ele>110.603256</ele>
        <time>2023-04-27T13:32:25.613Z</time>
      </trkpt>
      <trkpt lat="43.79681" lon="4.16705">
        <ele>109.910947</ele>
        <time>2023-04-27T13:32:33.874Z</time>
      </trkpt>
      <trkpt lat="43.79659" lon="4.16704">
        <ele>108.968608</ele>
        <time>2023-04-27T13:32:43.621Z</time>
      </trkpt>
      <trkpt lat="43.7965" lon="4.16692">
        <ele>108.431612</ele>
        <time>2023-04-27T13:32:49.093Z</time>
      </trkpt>
      <trkpt lat="43.79648" lon="4.16681">
        <ele>108.082752</ele>
        <time>2023-04-27T13:32:52.597Z</time>
      </trkpt>
      <trkpt lat="43.79652" lon="4.16653">
        <ele>107.194071</ele>
        <time>2023-04-27T13:33:01.513Z</time>
      </trkpt>
      <trkpt lat="43.7965" lon="4.16642">
        <ele>106.841201</ele>
        <time>2023-04-27T13:33:05.066Z</time>
      </trkpt>
      <trkpt lat="43.79644" lon="4.16625">
        <ele>106.240378</ele>
        <time>2023-04-27T13:33:11.079Z</time>
      </trkpt>
      <trkpt lat="43.79639" lon="4.16618">
        <ele>105.925583</ele>
        <time>2023-04-27T13:33:14.250Z</time>
      </trkpt>
      <trkpt lat="43.7962" lon="4.16598">
        <ele>104.920419</ele>
        <time>2023-04-27T13:33:24.366Z</time>
      </trkpt>
      <trkpt lat="43.79607" lon="4.1659">
        <ele>104.31133</ele>
        <time>2023-04-27T13:33:30.534Z</time>
      </trkpt>
      <trkpt lat="43.79595" lon="4.16591">
        <ele>103.814622</ele>
        <time>2023-04-27T13:33:35.546Z</time>
      </trkpt>
      <trkpt lat="43.79574" lon="4.16579">
        <ele>102.834644</ele>
        <time>2023-04-27T13:33:45.402Z</time>
      </trkpt>
      <trkpt lat="43.79549" lon="4.1656">
        <ele>102.122813</ele>
        <time>2023-04-27T13:33:57.698Z</time>
      </trkpt>
      <trkpt lat="43.79543" lon="4.16542">
        <ele>101.769799</ele>
        <time>2023-04-27T13:34:03.863Z</time>
      </trkpt>
      <trkpt lat="43.79535" lon="4.16532">
        <ele>101.487829</ele>
        <time>2023-04-27T13:34:08.834Z</time>
      </trkpt>
      <trkpt lat="43.79543" lon="4.16504">
        <ele>100.94568</ele>
        <time>2023-04-27T13:34:16.909Z</time>
      </trkpt>
      <trkpt lat="43.79543" lon="4.16462">
        <ele>100.187465</ele>
        <time>2023-04-27T13:34:28.373Z</time>
      </trkpt>
      <trkpt lat="43.79547" lon="4.16431">
        <ele>99.614511</ele>
        <time>2023-04-27T13:34:37.283Z</time>
      </trkpt>
      <trkpt lat="43.79553" lon="4.16414">
        <ele>99.264192</ele>
        <time>2023-04-27T13:34:42.769Z</time>
      </trkpt>
      <trkpt lat="43.79567" lon="4.16392">
        <ele>98.74129</ele>
        <time>2023-04-27T13:34:51.254Z</time>
      </trkpt>
      <trkpt lat="43.79581" lon="4.16342">
        <ele>99.027829</ele>
        <time>2023-04-27T13:35:07.606Z</time>
      </trkpt>
      <trkpt lat="43.79583" lon="4.16309">
        <ele>99.814742</ele>
        <time>2023-04-27T13:35:18.483Z</time>
      </trkpt>
      <trkpt lat="43.79595" lon="4.16253">
        <ele>101.215875</ele>
        <time>2023-04-27T13:35:37.867Z</time>
      </trkpt>
      <trkpt lat="43.79606" lon="4.16218">
        <ele>102.121834</ele>
        <time>2023-04-27T13:35:50.554Z</time>
      </trkpt>
      <trkpt lat="43.79624" lon="4.16193">
        <ele>102.950417</ele>
        <time>2023-04-27T13:36:02.848Z</time>
      </trkpt>
      <trkpt lat="43.79647" lon="4.16179">
        <ele>103.781922</ele>
        <time>2023-04-27T13:36:15.089Z</time>
      </trkpt>
      <trkpt lat="43.79659" lon="4.16165">
        <ele>104.39793</ele>
        <time>2023-04-27T13:36:23.310Z</time>
      </trkpt>
      <trkpt lat="43.79675" lon="4.1616">
        <ele>106.122935</ele>
        <time>2023-04-27T13:36:32.209Z</time>
      </trkpt>
      <trkpt lat="43.79685" lon="4.16141">
        <ele>107.894</ele>
        <time>2023-04-27T13:36:42.109Z</time>
      </trkpt>
      <trkpt lat="43.79685" lon="4.16129">
        <ele>108.758566</ele>
        <time>2023-04-27T13:36:46.676Z</time>
      </trkpt>
      <trkpt lat="43.79686" lon="4.16111">
        <ele>110.091622</ele>
        <time>2023-04-27T13:36:56.224Z</time>
      </trkpt>
      <trkpt lat="43.79692" lon="4.16103">
        <ele>110.900724</ele>
        <time>2023-04-27T13:37:02.181Z</time>
      </trkpt>
      <trkpt lat="43.79693" lon="4.1609">
        <ele>111.92363</ele>
        <time>2023-04-27T13:37:09.870Z</time>
      </trkpt>
      <trkpt lat="43.7969" lon="4.16086">
        <ele>112.386348</ele>
        <time>2023-04-27T13:37:13.070Z</time>
      </trkpt>
      <trkpt lat="43.79693" lon="4.16078">
        <ele>113.044373</ele>
        <time>2023-04-27T13:37:18.366Z</time>
      </trkpt>
      <trkpt lat="43.79693" lon="4.16062">
        <ele>114.236537</ele>
        <time>2023-04-27T13:37:28.130Z</time>
      </trkpt>
      <trkpt lat="43.7972" lon="4.16026">
        <ele>118.132926</ele>
        <time>2023-04-27T13:38:00.648Z</time>
      </trkpt>
      <trkpt lat="43.79756" lon="4.15909">
        <ele>127.573891</ele>
        <time>2023-04-27T13:39:21.340Z</time>
      </trkpt>
      <trkpt lat="43.79764" lon="4.15896">
        <ele>128.874936</ele>
        <time>2023-04-27T13:39:32.233Z</time>
      </trkpt>
      <trkpt lat="43.79773" lon="4.1587">
        <ele>131.069777</ele>
        <time>2023-04-27T13:39:50.743Z</time>
      </trkpt>
      <trkpt lat="43.79772" lon="4.15842">
        <ele>133.141393</ele>
        <time>2023-04-27T13:40:07.260Z</time>
      </trkpt>
      <trkpt lat="43.79777" lon="4.15805">
        <ele>135.961634</ele>
        <time>2023-04-27T13:40:28.674Z</time>
      </trkpt>
      <trkpt lat="43.79773" lon="4.15786">
        <ele>137.442997</ele>
        <time>2023-04-27T13:40:38.890Z</time>
      </trkpt>
      <trkpt lat="43.79757" lon="4.15761">
        <ele>139.915086</ele>
        <time>2023-04-27T13:40:55.096Z</time>
      </trkpt>
      <trkpt lat="43.79742" lon="4.15745">
        <ele>141.495243</ele>
        <time>2023-04-27T13:41:07.104Z</time>
      </trkpt>
      <trkpt lat="43.79709" lon="4.15746">
        <ele>142.23694</ele>
        <time>2023-04-27T13:41:26.702Z</time>
      </trkpt>
      <trkpt lat="43.79695" lon="4.15751">
        <ele>142.542278</ele>
        <time>2023-04-27T13:41:34.232Z</time>
      </trkpt>
      <trkpt lat="43.7968" lon="4.1579">
        <ele>143.243934</ele>
        <time>2023-04-27T13:41:50.560Z</time>
      </trkpt>
      <trkpt lat="43.79661" lon="4.1581">
        <ele>143.771617</ele>
        <time>2023-04-27T13:42:02.441Z</time>
      </trkpt>
      <trkpt lat="43.79429" lon="4.15887">
        <ele>145.098733</ele>
        <time>2023-04-27T13:43:59.014Z</time>
      </trkpt>
      <trkpt lat="43.79407" lon="4.15899">
        <ele>144.654258</ele>
        <time>2023-04-27T13:44:09.828Z</time>
      </trkpt>
      <trkpt lat="43.79398" lon="4.15908">
        <ele>144.213237</ele>
        <time>2023-04-27T13:44:14.881Z</time>
      </trkpt>
      <trkpt lat="43.7938" lon="4.15934">
        <ele>143.175925</ele>
        <time>2023-04-27T13:44:26.548Z</time>
      </trkpt>
      <trkpt lat="43.79365" lon="4.15932">
        <ele>142.575898</ele>
        <time>2023-04-27T13:44:33.327Z</time>
      </trkpt>
      <trkpt lat="43.79329" lon="4.15919">
        <ele>141.071506</ele>
        <time>2023-04-27T13:44:50.016Z</time>
      </trkpt>
      <trkpt lat="43.79319" lon="4.15911">
        <ele>140.624183</ele>
        <time>2023-04-27T13:44:54.851Z</time>
      </trkpt>
      <trkpt lat="43.79302" lon="4.15886">
        <ele>139.64164</ele>
        <time>2023-04-27T13:45:05.580Z</time>
      </trkpt>
      <trkpt lat="43.79273" lon="4.15857">
        <ele>138.192352</ele>
        <time>2023-04-27T13:45:21.002Z</time>
      </trkpt>
      <trkpt lat="43.79261" lon="4.1586">
        <ele>137.570801</ele>
        <time>2023-04-27T13:45:25.885Z</time>
      </trkpt>
      <trkpt lat="43.79256" lon="4.15867">
        <ele>137.086057</ele>
        <time>2023-04-27T13:45:28.672Z</time>
      </trkpt>
      <trkpt lat="43.79251" lon="4.15894">
        <ele>135.622747</ele>
        <time>2023-04-27T13:45:37.057Z</time>
      </trkpt>
      <trkpt lat="43.7923" lon="4.15963">
        <ele>131.72351</ele>
        <time>2023-04-27T13:45:58.948Z</time>
      </trkpt>
      <trkpt lat="43.7922" lon="4.15973">
        <ele>130.890657</ele>
        <time>2023-04-27T13:46:03.662Z</time>
      </trkpt>
      <trkpt lat="43.79203" lon="4.15975">
        <ele>129.662596</ele>
        <time>2023-04-27T13:46:10.547Z</time>
      </trkpt>
      <trkpt lat="43.79172" lon="4.15992">
        <ele>127.24076</ele>
        <time>2023-04-27T13:46:24.275Z</time>
      </trkpt>
      <trkpt lat="43.79168" lon="4.15999">
        <ele>126.739298</ele>
        <time>2023-04-27T13:46:27.112Z</time>
      </trkpt>
      <trkpt lat="43.79145" lon="4.16079">
        <ele>123.23293</ele>
        <time>2023-04-27T13:46:52.629Z</time>
      </trkpt>
      <trkpt lat="43.79135" lon="4.16108">
        <ele>122.141775</ele>
        <time>2023-04-27T13:47:02.391Z</time>
      </trkpt>
      <trkpt lat="43.79135" lon="4.16126">
        <ele>121.520772</ele>
        <time>2023-04-27T13:47:07.992Z</time>
      </trkpt>
      <trkpt lat="43.79128" lon="4.1617">
        <ele>119.97595</ele>
        <time>2023-04-27T13:47:22.113Z</time>
      </trkpt>
      <trkpt lat="43.79118" lon="4.16236">
        <ele>117.713083</ele>
        <time>2023-04-27T13:47:43.465Z</time>
      </trkpt>
      <trkpt lat="43.79113" lon="4.16293">
        <ele>116.205121</ele>
        <time>2023-04-27T13:48:02.708Z</time>
      </trkpt>
      <trkpt lat="43.79093" lon="4.16343">
        <ele>115.438979</ele>
        <time>2023-04-27T13:48:22.110Z</time>
      </trkpt>
      <trkpt lat="43.79069" lon="4.16385">
        <ele>114.722231</ele>
        <time>2023-04-27T13:48:40.217Z</time>
      </trkpt>
      <trkpt lat="43.79051" lon="4.16407">
        <ele>114.28176</ele>
        <time>2023-04-27T13:48:51.227Z</time>
      </trkpt>
      <trkpt lat="43.78988" lon="4.16461">
        <ele>112.63376</ele>
        <time>2023-04-27T13:49:25.431Z</time>
      </trkpt>
      <trkpt lat="43.7898" lon="4.16469">
        <ele>112.274706</ele>
        <time>2023-04-27T13:49:29.744Z</time>
      </trkpt>
      <trkpt lat="43.78972" lon="4.16464">
        <ele>111.949775</ele>
        <time>2023-04-27T13:49:33.643Z</time>
      </trkpt>
      <trkpt lat="43.7896" lon="4.16466">
        <ele>111.485211</ele>
        <time>2023-04-27T13:49:39.171Z</time>
      </trkpt>
      <trkpt lat="43.78954" lon="4.1647">
        <ele>111.251628</ele>
        <time>2023-04-27T13:49:41.955Z</time>
      </trkpt>
      <trkpt lat="43.78949" lon="4.16479">
        <ele>110.935174</ele>
        <time>2023-04-27T13:49:45.682Z</time>
      </trkpt>
      <trkpt lat="43.78927" lon="4.16497">
        <ele>109.974852</ele>
        <time>2023-04-27T13:49:56.986Z</time>
      </trkpt>
      <trkpt lat="43.78908" lon="4.16519">
        <ele>109.051253</ele>
        <time>2023-04-27T13:50:07.680Z</time>
      </trkpt>
      <trkpt lat="43.78893" lon="4.16543">
        <ele>108.194264</ele>
        <time>2023-04-27T13:50:17.598Z</time>
      </trkpt>
      <trkpt lat="43.78891" lon="4.16552">
        <ele>107.960964</ele>
        <time>2023-04-27T13:50:20.290Z</time>
      </trkpt>
      <trkpt lat="43.78885" lon="4.16557">
        <ele>107.693057</ele>
        <time>2023-04-27T13:50:23.398Z</time>
      </trkpt>
      <trkpt lat="43.78879" lon="4.16556">
        <ele>107.443711</ele>
        <time>2023-04-27T13:50:26.327Z</time>
      </trkpt>
      <trkpt lat="43.78876" lon="4.16559">
        <ele>107.320536</ele>
        <time>2023-04-27T13:50:27.722Z</time>
      </trkpt>
      <trkpt lat="43.78845" lon="4.16607">
        <ele>105.83135</ele>
        <time>2023-04-27T13:50:48.233Z</time>
      </trkpt>
      <trkpt lat="43.78833" lon="4.1662">
        <ele>105.443461</ele>
        <time>2023-04-27T13:50:54.861Z</time>
      </trkpt>
      <trkpt lat="43.78826" lon="4.16637">
        <ele>105.070463</ele>
        <time>2023-04-27T13:51:01.318Z</time>
      </trkpt>
      <trkpt lat="43.78815" lon="4.16672">
        <ele>104.35961</ele>
        <time>2023-04-27T13:51:13.693Z</time>
      </trkpt>
      <trkpt lat="43.78807" lon="4.16688">
        <ele>104.005391</ele>
        <time>2023-04-27T13:51:19.980Z</time>
      </trkpt>
      <trkpt lat="43.78805" lon="4.16699">
        <ele>103.802187</ele>
        <time>2023-04-27T13:51:23.577Z</time>
      </trkpt>
      <trkpt lat="43.78794" lon="4.1672">
        <ele>103.327339</ele>
        <time>2023-04-27T13:51:32.029Z</time>
      </trkpt>
      <trkpt lat="43.78791" lon="4.16737">
        <ele>102.995553</ele>
        <time>2023-04-27T13:51:38.036Z</time>
      </trkpt>
      <trkpt lat="43.78776" lon="4.16771">
        <ele>102.25583</ele>
        <time>2023-04-27T13:51:51.497Z</time>
      </trkpt>
      <trkpt lat="43.78776" lon="4.16771">
        <ele>102.25583</ele>
        <time>2023-04-27T13:51:51.499Z</time>
      </trkpt>
      <trkpt lat="43.78786" lon="4.16779">
        <ele>101.971157</ele>
        <time>2023-04-27T13:51:56.039Z</time>
      </trkpt>
      <trkpt lat="43.78783" lon="4.16783">
        <ele>101.863955</ele>
        <time>2023-04-27T13:51:57.749Z</time>
      </trkpt>
      <trkpt lat="43.78781" lon="4.16788">
        <ele>101.797777</ele>
        <time>2023-04-27T13:51:59.443Z</time>
      </trkpt>
      <trkpt lat="43.78777" lon="4.16794">
        <ele>101.806927</ele>
        <time>2023-04-27T13:52:01.864Z</time>
      </trkpt>
      <trkpt lat="43.78777" lon="4.16796">
        <ele>101.809168</ele>
        <time>2023-04-27T13:52:02.456Z</time>
      </trkpt>
      <trkpt lat="43.78774" lon="4.16801">
        <ele>101.816452</ele>
        <time>2023-04-27T13:52:04.383Z</time>
      </trkpt>
      <trkpt lat="43.78771" lon="4.16809">
        <ele>101.826553</ele>
        <time>2023-04-27T13:52:07.056Z</time>
      </trkpt>
      <trkpt lat="43.78769" lon="4.16812">
        <ele>101.831128</ele>
        <time>2023-04-27T13:52:08.266Z</time>
      </trkpt>
      <trkpt lat="43.78767" lon="4.16823">
        <ele>101.843837</ele>
        <time>2023-04-27T13:52:11.628Z</time>
      </trkpt>
      <trkpt lat="43.78766" lon="4.16825">
        <ele>101.846563</ele>
        <time>2023-04-27T13:52:12.350Z</time>
      </trkpt>
      <trkpt lat="43.78765" lon="4.16822">
        <ele>101.850265</ele>
        <time>2023-04-27T13:52:13.329Z</time>
      </trkpt>
      <trkpt lat="43.78773" lon="4.16809">
        <ele>101.869404</ele>
        <time>2023-04-27T13:52:18.392Z</time>
      </trkpt>
      <trkpt lat="43.78775" lon="4.16803">
        <ele>101.876808</ele>
        <time>2023-04-27T13:52:20.351Z</time>
      </trkpt>
      <trkpt lat="43.78775" lon="4.16798">
        <ele>101.88241</ele>
        <time>2023-04-27T13:52:21.833Z</time>
      </trkpt>
      <trkpt lat="43.78776" lon="4.16795">
        <ele>101.886112</ele>
        <time>2023-04-27T13:52:22.812Z</time>
      </trkpt>
      <trkpt lat="43.78779" lon="4.16786">
        <ele>101.897219</ele>
        <time>2023-04-27T13:52:25.749Z</time>
      </trkpt>
      <trkpt lat="43.7878" lon="4.16779">
        <ele>101.905213</ele>
        <time>2023-04-27T13:52:27.865Z</time>
      </trkpt>
      <trkpt lat="43.78782" lon="4.16774">
        <ele>101.911618</ele>
        <time>2023-04-27T13:52:29.560Z</time>
      </trkpt>
      <trkpt lat="43.78783" lon="4.16767">
        <ele>101.919613</ele>
        <time>2023-04-27T13:52:31.675Z</time>
      </trkpt>
      <trkpt lat="43.78784" lon="4.16764">
        <ele>101.923315</ele>
        <time>2023-04-27T13:52:32.654Z</time>
      </trkpt>
      <trkpt lat="43.78787" lon="4.1676">
        <ele>101.929777</ele>
        <time>2023-04-27T13:52:34.364Z</time>
      </trkpt>
      <trkpt lat="43.78787" lon="4.16756">
        <ele>101.934259</ele>
        <time>2023-04-27T13:52:35.549Z</time>
      </trkpt>
      <trkpt lat="43.7879" lon="4.16748">
        <ele>101.944359</ele>
        <time>2023-04-27T13:52:38.222Z</time>
      </trkpt>
      <trkpt lat="43.78791" lon="4.16744">
        <ele>101.949102</ele>
        <time>2023-04-27T13:52:39.476Z</time>
      </trkpt>
      <trkpt lat="43.78791" lon="4.16739">
        <ele>101.954704</ele>
        <time>2023-04-27T13:52:40.958Z</time>
      </trkpt>
      <trkpt lat="43.78791" lon="4.16734">
        <ele>101.960305</ele>
        <time>2023-04-27T13:52:42.440Z</time>
      </trkpt>
      <trkpt lat="43.78793" lon="4.16731">
        <ele>101.964881</ele>
        <time>2023-04-27T13:52:43.650Z</time>
      </trkpt>
      <trkpt lat="43.78795" lon="4.16728">
        <ele>101.969456</ele>
        <time>2023-04-27T13:52:44.861Z</time>
      </trkpt>
      <trkpt lat="43.78796" lon="4.16726">
        <ele>101.972182</ele>
        <time>2023-04-27T13:52:45.581Z</time>
      </trkpt>
      <trkpt lat="43.78796" lon="4.16723">
        <ele>101.975543</ele>
        <time>2023-04-27T13:52:46.471Z</time>
      </trkpt>
      <trkpt lat="43.78797" lon="4.16719">
        <ele>101.980285</ele>
        <time>2023-04-27T13:52:47.726Z</time>
      </trkpt>
      <trkpt lat="43.78802" lon="4.16707">
        <ele>101.995809</ele>
        <time>2023-04-27T13:52:51.833Z</time>
      </trkpt>
      <trkpt lat="43.78805" lon="4.16702">
        <ele>102.003093</ele>
        <time>2023-04-27T13:52:53.759Z</time>
      </trkpt>
      <trkpt lat="43.7879" lon="4.16691">
        <ele>102.029571</ele>
        <time>2023-04-27T13:53:00.781Z</time>
      </trkpt>
      <trkpt lat="43.78797" lon="4.16672">
        <ele>102.053442</ele>
        <time>2023-04-27T13:53:08.543Z</time>
      </trkpt>
      <trkpt lat="43.78802" lon="4.16654">
        <ele>102.074892</ele>
        <time>2023-04-27T13:53:15.176Z</time>
      </trkpt>
      <trkpt lat="43.78817" lon="4.1662">
        <ele>102.422623</ele>
        <time>2023-04-27T13:53:29.678Z</time>
      </trkpt>
      <trkpt lat="43.78819" lon="4.16612">
        <ele>102.495915</ele>
        <time>2023-04-27T13:53:32.722Z</time>
      </trkpt>
      <trkpt lat="43.78825" lon="4.16607">
        <ele>102.583525</ele>
        <time>2023-04-27T13:53:36.399Z</time>
      </trkpt>
      <trkpt lat="43.78828" lon="4.16584">
        <ele>102.779376</ele>
        <time>2023-04-27T13:53:44.905Z</time>
      </trkpt>
      <trkpt lat="43.78837" lon="4.16559">
        <ele>103.016337</ele>
        <time>2023-04-27T13:53:54.866Z</time>
      </trkpt>
      <trkpt lat="43.78844" lon="4.16553">
        <ele>103.115858</ele>
        <time>2023-04-27T13:53:59.129Z</time>
      </trkpt>
      <trkpt lat="43.7885" lon="4.16536">
        <ele>103.28159</ele>
        <time>2023-04-27T13:54:06.256Z</time>
      </trkpt>
      <trkpt lat="43.78864" lon="4.16516">
        <ele>103.52188</ele>
        <time>2023-04-27T13:54:16.317Z</time>
      </trkpt>
      <trkpt lat="43.78868" lon="4.165">
        <ele>103.664749</ele>
        <time>2023-04-27T13:54:22.525Z</time>
      </trkpt>
      <trkpt lat="43.78866" lon="4.16484">
        <ele>103.799421</ele>
        <time>2023-04-27T13:54:28.294Z</time>
      </trkpt>
      <trkpt lat="43.78872" lon="4.16473">
        <ele>103.917619</ele>
        <time>2023-04-27T13:54:33.382Z</time>
      </trkpt>
      <trkpt lat="43.78872" lon="4.16462">
        <ele>104.013557</ele>
        <time>2023-04-27T13:54:37.514Z</time>
      </trkpt>
      <trkpt lat="43.78868" lon="4.16446">
        <ele>104.154971</ele>
        <time>2023-04-27T13:54:43.702Z</time>
      </trkpt>
      <trkpt lat="43.78864" lon="4.16448">
        <ele>104.207802</ele>
        <time>2023-04-27T13:54:45.948Z</time>
      </trkpt>
      <trkpt lat="43.78856" lon="4.1646">
        <ele>104.50659</ele>
        <time>2023-04-27T13:54:51.879Z</time>
      </trkpt>
      <trkpt lat="43.7885" lon="4.16465">
        <ele>104.700244</ele>
        <time>2023-04-27T13:54:55.673Z</time>
      </trkpt>
      <trkpt lat="43.78844" lon="4.16463">
        <ele>104.855076</ele>
        <time>2023-04-27T13:54:58.885Z</time>
      </trkpt>
      <trkpt lat="43.78852" lon="4.16413">
        <ele>105.819191</ele>
        <time>2023-04-27T13:55:18.108Z</time>
      </trkpt>
      <trkpt lat="43.78862" lon="4.16402">
        <ele>106.142493</ele>
        <time>2023-04-27T13:55:24.548Z</time>
      </trkpt>
      <trkpt lat="43.78866" lon="4.16382">
        <ele>106.547177</ele>
        <time>2023-04-27T13:55:32.711Z</time>
      </trkpt>
      <trkpt lat="43.78873" lon="4.16369">
        <ele>106.83931</ele>
        <time>2023-04-27T13:55:38.830Z</time>
      </trkpt>
      <trkpt lat="43.78893" lon="4.16347">
        <ele>107.494666</ele>
        <time>2023-04-27T13:55:52.363Z</time>
      </trkpt>
      <trkpt lat="43.7891" lon="4.16335">
        <ele>108.009763</ele>
        <time>2023-04-27T13:56:03.474Z</time>
      </trkpt>
      <trkpt lat="43.78912" lon="4.16332">
        <ele>108.089046</ele>
        <time>2023-04-27T13:56:05.190Z</time>
      </trkpt>
      <trkpt lat="43.78913" lon="4.16327">
        <ele>108.17118</ele>
        <time>2023-04-27T13:56:06.985Z</time>
      </trkpt>
      <trkpt lat="43.789" lon="4.16316">
        <ele>108.568173</ele>
        <time>2023-04-27T13:56:15.747Z</time>
      </trkpt>
      <trkpt lat="43.78885" lon="4.163">
        <ele>109.120982</ele>
        <time>2023-04-27T13:56:25.902Z</time>
      </trkpt>
      <trkpt lat="43.78885" lon="4.16285">
        <ele>109.518436</ele>
        <time>2023-04-27T13:56:31.841Z</time>
      </trkpt>
      <trkpt lat="43.78894" lon="4.16255">
        <ele>110.393972</ele>
        <time>2023-04-27T13:56:44.864Z</time>
      </trkpt>
      <trkpt lat="43.78897" lon="4.16221">
        <ele>111.328026</ele>
        <time>2023-04-27T13:56:58.867Z</time>
      </trkpt>
      <trkpt lat="43.78903" lon="4.16203">
        <ele>111.88018</ele>
        <time>2023-04-27T13:57:07.142Z</time>
      </trkpt>
      <trkpt lat="43.7891" lon="4.16169">
        <ele>112.840929</ele>
        <time>2023-04-27T13:57:21.640Z</time>
      </trkpt>
      <trkpt lat="43.78915" lon="4.16127">
        <ele>113.980466</ele>
        <time>2023-04-27T13:57:38.776Z</time>
      </trkpt>
      <trkpt lat="43.78926" lon="4.16084">
        <ele>115.21473</ele>
        <time>2023-04-27T13:57:57.163Z</time>
      </trkpt>
      <trkpt lat="43.78926" lon="4.16072">
        <ele>115.54454</ele>
        <time>2023-04-27T13:58:02.048Z</time>
      </trkpt>
      <trkpt lat="43.78937" lon="4.16033">
        <ele>116.924409</ele>
        <time>2023-04-27T13:58:18.854Z</time>
      </trkpt>
      <trkpt lat="43.78955" lon="4.15991">
        <ele>118.551654</ele>
        <time>2023-04-27T13:58:38.908Z</time>
      </trkpt>
      <trkpt lat="43.78969" lon="4.15911">
        <ele>121.31703</ele>
        <time>2023-04-27T13:59:14.134Z</time>
      </trkpt>
      <trkpt lat="43.78988" lon="4.15863">
        <ele>123.132044</ele>
        <time>2023-04-27T13:59:37.476Z</time>
      </trkpt>
      <trkpt lat="43.78984" lon="4.1586">
        <ele>123.342314</ele>
        <time>2023-04-27T13:59:40.246Z</time>
      </trkpt>
      <trkpt lat="43.78979" lon="4.15864">
        <ele>123.575029</ele>
        <time>2023-04-27T13:59:43.250Z</time>
      </trkpt>
      <trkpt lat="43.78965" lon="4.15858">
        <ele>124.25632</ele>
        <time>2023-04-27T13:59:51.937Z</time>
      </trkpt>
      <trkpt lat="43.78919" lon="4.15812">
        <ele>127.003728</ele>
        <time>2023-04-27T14:00:26.774Z</time>
      </trkpt>
      <trkpt lat="43.78896" lon="4.15798">
        <ele>128.226513</ele>
        <time>2023-04-27T14:00:42.414Z</time>
      </trkpt>
      <trkpt lat="43.78893" lon="4.15798">
        <ele>128.370794</ele>
        <time>2023-04-27T14:00:44.288Z</time>
      </trkpt>
      <trkpt lat="43.78888" lon="4.15804">
        <ele>128.663377</ele>
        <time>2023-04-27T14:00:48.062Z</time>
      </trkpt>
      <trkpt lat="43.78751" lon="4.15832">
        <ele>133.322075</ele>
        <time>2023-04-27T14:02:06.871Z</time>
      </trkpt>
      <trkpt lat="43.78745" lon="4.15825">
        <ele>133.417318</ele>
        <time>2023-04-27T14:02:10.601Z</time>
      </trkpt>
      <trkpt lat="43.78741" lon="4.1583">
        <ele>133.484565</ele>
        <time>2023-04-27T14:02:13.224Z</time>
      </trkpt>
      <trkpt lat="43.78725" lon="4.15836">
        <ele>133.700626</ele>
        <time>2023-04-27T14:02:21.653Z</time>
      </trkpt>
      <trkpt lat="43.78646" lon="4.15854">
        <ele>134.710058</ele>
        <time>2023-04-27T14:02:59.888Z</time>
      </trkpt>
      <trkpt lat="43.78587" lon="4.15857">
        <ele>134.59996</ele>
        <time>2023-04-27T14:03:27.790Z</time>
      </trkpt>
      <trkpt lat="43.78542" lon="4.15842">
        <ele>134.311086</ele>
        <time>2023-04-27T14:03:50.059Z</time>
      </trkpt>
      <trkpt lat="43.78516" lon="4.15842">
        <ele>134.154186</ele>
        <time>2023-04-27T14:04:02.280Z</time>
      </trkpt>
      <trkpt lat="43.78513" lon="4.1587">
        <ele>134.026688</ele>
        <time>2023-04-27T14:04:12.174Z</time>
      </trkpt>
      <trkpt lat="43.78515" lon="4.15903">
        <ele>133.881744</ele>
        <time>2023-04-27T14:04:23.385Z</time>
      </trkpt>
      <trkpt lat="43.78474" lon="4.15919">
        <ele>132.969915</ele>
        <time>2023-04-27T14:04:43.553Z</time>
      </trkpt>
      <trkpt lat="43.78452" lon="4.15923">
        <ele>132.225023</ele>
        <time>2023-04-27T14:04:54.500Z</time>
      </trkpt>
      <trkpt lat="43.78421" lon="4.15924">
        <ele>131.245065</ele>
        <time>2023-04-27T14:05:08.572Z</time>
      </trkpt>
      <trkpt lat="43.78414" lon="4.15918">
        <ele>130.968679</ele>
        <time>2023-04-27T14:05:12.513Z</time>
      </trkpt>
      <trkpt lat="43.78403" lon="4.15916">
        <ele>130.607876</ele>
        <time>2023-04-27T14:05:17.569Z</time>
      </trkpt>
      <trkpt lat="43.784" lon="4.15927">
        <ele>130.343026</ele>
        <time>2023-04-27T14:05:21.272Z</time>
      </trkpt>
      <trkpt lat="43.78389" lon="4.15938">
        <ele>129.896495</ele>
        <time>2023-04-27T14:05:27.427Z</time>
      </trkpt>
      <trkpt lat="43.7838" lon="4.15955">
        <ele>129.396451</ele>
        <time>2023-04-27T14:05:34.231Z</time>
      </trkpt>
      <trkpt lat="43.78365" lon="4.1597">
        <ele>128.820825</ele>
        <time>2023-04-27T14:05:41.971Z</time>
      </trkpt>
      <trkpt lat="43.78356" lon="4.16023">
        <ele>126.730149</ele>
        <time>2023-04-27T14:05:58.309Z</time>
      </trkpt>
      <trkpt lat="43.78348" lon="4.16036">
        <ele>125.502788</ele>
        <time>2023-04-27T14:06:03.432Z</time>
      </trkpt>
      <trkpt lat="43.7834" lon="4.16039">
        <ele>124.724134</ele>
        <time>2023-04-27T14:06:06.705Z</time>
      </trkpt>
      <trkpt lat="43.78305" lon="4.16041">
        <ele>121.292536</ele>
        <time>2023-04-27T14:06:20.853Z</time>
      </trkpt>
      <trkpt lat="43.78295" lon="4.16046">
        <ele>120.299228</ele>
        <time>2023-04-27T14:06:24.867Z</time>
      </trkpt>
      <trkpt lat="43.78283" lon="4.16062">
        <ele>118.672166</ele>
        <time>2023-04-27T14:06:31.382Z</time>
      </trkpt>
      <trkpt lat="43.78276" lon="4.1608">
        <ele>117.264057</ele>
        <time>2023-04-27T14:06:36.986Z</time>
      </trkpt>
      <trkpt lat="43.78271" lon="4.16092">
        <ele>116.267915</ele>
        <time>2023-04-27T14:06:40.917Z</time>
      </trkpt>
      <trkpt lat="43.78264" lon="4.16102">
        <ele>115.283909</ele>
        <time>2023-04-27T14:06:44.790Z</time>
      </trkpt>
      <trkpt lat="43.78236" lon="4.16125">
        <ele>112.115245</ele>
        <time>2023-04-27T14:06:57.227Z</time>
      </trkpt>
      <trkpt lat="43.7822" lon="4.16128">
        <ele>110.631084</ele>
        <time>2023-04-27T14:07:03.024Z</time>
      </trkpt>
      <trkpt lat="43.78185" lon="4.1612">
        <ele>106.892034</ele>
        <time>2023-04-27T14:07:16.513Z</time>
      </trkpt>
      <trkpt lat="43.78176" lon="4.16121">
        <ele>105.908997</ele>
        <time>2023-04-27T14:07:20.067Z</time>
      </trkpt>
      <trkpt lat="43.78164" lon="4.16123">
        <ele>104.661313</ele>
        <time>2023-04-27T14:07:24.565Z</time>
      </trkpt>
      <trkpt lat="43.78108" lon="4.16111">
        <ele>98.693711</ele>
        <time>2023-04-27T14:07:46.178Z</time>
      </trkpt>
      <trkpt lat="43.78099" lon="4.1612">
        <ele>97.517688</ele>
        <time>2023-04-27T14:07:50.499Z</time>
      </trkpt>
      <trkpt lat="43.78091" lon="4.16146">
        <ele>95.349427</ele>
        <time>2023-04-27T14:07:58.651Z</time>
      </trkpt>
      <trkpt lat="43.7808" lon="4.16161">
        <ele>93.794028</ele>
        <time>2023-04-27T14:08:04.542Z</time>
      </trkpt>
      <trkpt lat="43.78079" lon="4.16169">
        <ele>93.132608</ele>
        <time>2023-04-27T14:08:07.072Z</time>
      </trkpt>
      <trkpt lat="43.78079" lon="4.1618">
        <ele>92.289709</ele>
        <time>2023-04-27T14:08:10.337Z</time>
      </trkpt>
      <trkpt lat="43.78084" lon="4.16192">
        <ele>91.431605</ele>
        <time>2023-04-27T14:08:14.356Z</time>
      </trkpt>
      <trkpt lat="43.78106" lon="4.16227">
        <ele>89.554905</ele>
        <time>2023-04-27T14:08:27.912Z</time>
      </trkpt>
      <trkpt lat="43.78134" lon="4.16289">
        <ele>86.568351</ele>
        <time>2023-04-27T14:08:49.865Z</time>
      </trkpt>
      <trkpt lat="43.78145" lon="4.16323">
        <ele>85.045608</ele>
        <time>2023-04-27T14:09:01.408Z</time>
      </trkpt>
      <trkpt lat="43.78158" lon="4.16351">
        <ele>83.700958</ele>
        <time>2023-04-27T14:09:11.881Z</time>
      </trkpt>
      <trkpt lat="43.78085" lon="4.16329">
        <ele>80.398176</ele>
        <time>2023-04-27T14:09:45.545Z</time>
      </trkpt>
      <trkpt lat="43.78079" lon="4.16327">
        <ele>80.214127</ele>
        <time>2023-04-27T14:09:48.251Z</time>
      </trkpt>
      <trkpt lat="43.78041" lon="4.16318">
        <ele>79.046748</ele>
        <time>2023-04-27T14:10:03.061Z</time>
      </trkpt>
      <trkpt lat="43.78023" lon="4.16309">
        <ele>78.463473</ele>
        <time>2023-04-27T14:10:10.466Z</time>
      </trkpt>
      <trkpt lat="43.78011" lon="4.16299">
        <ele>78.056074</ele>
        <time>2023-04-27T14:10:15.558Z</time>
      </trkpt>
      <trkpt lat="43.77999" lon="4.16278">
        <ele>77.454899</ele>
        <time>2023-04-27T14:10:23.153Z</time>
      </trkpt>
      <trkpt lat="43.77969" lon="4.1634">
        <ele>75.900694</ele>
        <time>2023-04-27T14:10:43.784Z</time>
      </trkpt>
      <trkpt lat="43.77963" lon="4.16335">
        <ele>75.762682</ele>
        <time>2023-04-27T14:10:46.502Z</time>
      </trkpt>
      <trkpt lat="43.77937" lon="4.16389">
        <ele>74.841127</ele>
        <time>2023-04-27T14:11:04.701Z</time>
      </trkpt>
      <trkpt lat="43.7792" lon="4.16436">
        <ele>74.084912</ele>
        <time>2023-04-27T14:11:19.733Z</time>
      </trkpt>
      <trkpt lat="43.77913" lon="4.16479">
        <ele>73.454588</ele>
        <time>2023-04-27T14:11:32.271Z</time>
      </trkpt>
      <trkpt lat="43.77907" lon="4.1652">
        <ele>72.869839</ele>
        <time>2023-04-27T14:11:44.046Z</time>
      </trkpt>
      <trkpt lat="43.77895" lon="4.16602">
        <ele>71.827677</ele>
        <time>2023-04-27T14:12:12.421Z</time>
      </trkpt>
      <trkpt lat="43.7788" lon="4.16681">
        <ele>70.878157</ele>
        <time>2023-04-27T14:12:40.061Z</time>
      </trkpt>
      <trkpt lat="43.77875" lon="4.1669">
        <ele>70.753346</ele>
        <time>2023-04-27T14:12:43.676Z</time>
      </trkpt>
      <trkpt lat="43.77874" lon="4.16701">
        <ele>70.627203</ele>
        <time>2023-04-27T14:12:46.806Z</time>
      </trkpt>
      <trkpt lat="43.77868" lon="4.16725">
        <ele>70.329859</ele>
        <time>2023-04-27T14:12:54.134Z</time>
      </trkpt>
      <trkpt lat="43.77774" lon="4.16733">
        <ele>68.513891</ele>
        <time>2023-04-27T14:13:37.833Z</time>
      </trkpt>
      <trkpt lat="43.77762" lon="4.16734">
        <ele>68.247535</ele>
        <time>2023-04-27T14:13:43.382Z</time>
      </trkpt>
      <trkpt lat="43.77702" lon="4.16745">
        <ele>66.929322</ele>
        <time>2023-04-27T14:14:10.702Z</time>
      </trkpt>
      <trkpt lat="43.77658" lon="4.16745">
        <ele>65.96237</ele>
        <time>2023-04-27T14:14:30.793Z</time>
      </trkpt>
      <trkpt lat="43.77601" lon="4.16773">
        <ele>64.77324</ele>
        <time>2023-04-27T14:14:58.751Z</time>
      </trkpt>
      <trkpt lat="43.77578" lon="4.16781">
        <ele>64.346154</ele>
        <time>2023-04-27T14:15:09.169Z</time>
      </trkpt>
      <trkpt lat="43.77549" lon="4.16773">
        <ele>63.775806</ele>
        <time>2023-04-27T14:15:23.129Z</time>
      </trkpt>
      <trkpt lat="43.7754" lon="4.16767">
        <ele>63.603942</ele>
        <time>2023-04-27T14:15:26.728Z</time>
      </trkpt>
      <trkpt lat="43.77537" lon="4.16761">
        <ele>63.501482</ele>
        <time>2023-04-27T14:15:28.885Z</time>
      </trkpt>
      <trkpt lat="43.77527" lon="4.16766">
        <ele>63.298088</ele>
        <time>2023-04-27T14:15:33.111Z</time>
      </trkpt>
      <trkpt lat="43.77514" lon="4.1678">
        <ele>62.99296</ele>
        <time>2023-04-27T14:15:39.471Z</time>
      </trkpt>
      <trkpt lat="43.77456" lon="4.1686">
        <ele>62.05944</ele>
        <time>2023-04-27T14:16:12.043Z</time>
      </trkpt>
      <trkpt lat="43.77431" lon="4.169">
        <ele>61.86551</ele>
        <time>2023-04-27T14:16:27.519Z</time>
      </trkpt>
      <trkpt lat="43.77422" lon="4.16906">
        <ele>61.818277</ele>
        <time>2023-04-27T14:16:31.280Z</time>
      </trkpt>
      <trkpt lat="43.77414" lon="4.16906">
        <ele>61.77888</ele>
        <time>2023-04-27T14:16:34.419Z</time>
      </trkpt>
      <trkpt lat="43.77385" lon="4.165">
        <ele>62.093134</ele>
        <time>2023-04-27T14:18:37.073Z</time>
      </trkpt>
      <trkpt lat="43.77366" lon="4.16236">
        <ele>62.564233</ele>
        <time>2023-04-27T14:19:56.452Z</time>
      </trkpt>
      <trkpt lat="43.77364" lon="4.1621">
        <ele>62.564233</ele>
        <time>2023-04-27T14:20:04.367Z</time>
      </trkpt>
      <trkpt lat="43.77363" lon="4.16179">
        <ele>62.564233</ele>
        <time>2023-04-27T14:20:13.814Z</time>
      </trkpt>
      <trkpt lat="43.77364" lon="4.16145">
        <ele>62.564233</ele>
        <time>2023-04-27T14:20:24.101Z</time>
      </trkpt>
      <trkpt lat="43.77356" lon="4.16017">
        <ele>62.564233</ele>
        <time>2023-04-27T14:21:03.103Z</time>
      </trkpt>
      <trkpt lat="43.77344" lon="4.16019">
        <ele>62.564233</ele>
        <time>2023-04-27T14:21:08.145Z</time>
      </trkpt>
      <trkpt lat="43.7734" lon="4.15986">
        <ele>62.564233</ele>
        <time>2023-04-27T14:21:18.156Z</time>
      </trkpt>
      <trkpt lat="43.7734" lon="4.15984">
        <ele>62.564233</ele>
        <time>2023-04-27T14:21:18.673Z</time>
      </trkpt>
      <trkpt lat="43.7734" lon="4.15986">
        <ele>62.564233</ele>
        <time>2023-04-27T14:21:19.184Z</time>
      </trkpt>
    </trkseg>
  </trk>
</gpx>